Observation data for Amarillo 15 North Northwest on 02/17/2017      Previous  Date  Next       Current Mesonet Observations  Soil Data  Daily Summary Page  Observations in Plain Language
KAM3 170601Z 19016KT 07/M02 A2977 RMK A01 T00731017  RH  053%=      5-min Rain = 0
KAM3 170602Z 19017KT 07/M02 A2977 RMK A01 T00731018  RH  053%=      5-min Rain = 0
KAM3 170603Z 19015KT 07/M02 A2977 RMK A01 T00741018  RH  052%=      5-min Rain = 0
KAM3 170604Z 20017KT 08/M02 A2977 RMK A01 T00751018  RH  052%=      5-min Rain = 0
KAM3 170605Z 19016KT 08/M02 A2977 RMK A01 T00751018  RH  051%=      5-min Rain = 0
KAM3 170606Z 19016KT 08/M02 A2977 RMK A01 T00761018  RH  051%=      5-min Rain = 0
KAM3 170607Z 20016KT 08/M02 A2977 RMK A01 T00761018  RH  051%=      5-min Rain = 0
KAM3 170608Z 20016KT 08/M02 A2977 RMK A01 T00761019  RH  051%=      5-min Rain = 0
KAM3 170609Z 20016KT 08/M02 A2977 RMK A01 T00771019  RH  051%=      5-min Rain = 0
KAM3 170610Z 20016KT 08/M02 A2977 RMK A01 T00781019  RH  050%=      5-min Rain = 0
KAM3 170611Z 20018KT 08/M02 A2977 RMK A01 T00791019  RH  050%=      5-min Rain = 0
KAM3 170612Z 20017KT 08/M02 A2977 RMK A01 T00801019  RH  050%=      5-min Rain = 0
KAM3 170613Z 20016G22KT 08/M02 A2977 RMK A01 T00801020  RH  049%=      5-min Rain = 0
KAM3 170614Z 20017KT 08/M02 A2977 RMK A01 T00811020  RH  049%=      5-min Rain = 0
KAM3 170615Z 20016KT 08/M02 A2977 RMK A01 T00811020  RH  049%=      5-min Rain = 0
KAM3 170616Z 20016KT 08/M02 A2976 RMK A01 T00811020  RH  049%=      5-min Rain = 0
KAM3 170617Z 20016KT 08/M02 A2976 RMK A01 T00811020  RH  049%=      5-min Rain = 0
KAM3 170618Z 20015KT 08/M02 A2976 RMK A01 T00821020  RH  049%=      5-min Rain = 0
KAM3 170619Z 20015KT 08/M02 A2976 RMK A01 T00821020  RH  049%=      5-min Rain = 0
KAM3 170620Z 20015KT 08/M02 A2976 RMK A01 T00811020  RH  049%=      5-min Rain = 0
KAM3 170621Z 20016G21KT 08/M02 A2976 RMK A01 T00811020  RH  049%=      5-min Rain = 0
KAM3 170622Z 20015KT 08/M02 A2976 RMK A01 T00811020  RH  049%=      5-min Rain = 0
KAM3 170623Z 21014KT 08/M02 A2976 RMK A01 T00811020  RH  049%=      5-min Rain = 0
KAM3 170624Z 21016KT 08/M02 A2976 RMK A01 T00801020  RH  049%=      5-min Rain = 0
KAM3 170625Z 21018KT 08/M02 A2976 RMK A01 T00811020  RH  049%=      5-min Rain = 0
KAM3 170626Z 21017KT 08/M02 A2976 RMK A01 T00821020  RH  049%=      5-min Rain = 0
KAM3 170627Z 21016KT 08/M02 A2976 RMK A01 T00821020  RH  048%=      5-min Rain = 0
KAM3 170628Z 21015KT 08/M02 A2976 RMK A01 T00831020  RH  049%=      5-min Rain = 0
KAM3 170629Z 21017KT 08/M02 A2976 RMK A01 T00821020  RH  049%=      5-min Rain = 0
KAM3 170630Z 21018KT 08/M02 A2976 RMK A01 T00821020  RH  049%=      5-min Rain = 0
KAM3 170631Z 21016KT 08/M02 A2976 RMK A01 T00831020  RH  049%=      5-min Rain = 0
KAM3 170632Z 21018KT 08/M02 A2976 RMK A01 T00821020  RH  049%=      5-min Rain = 0
KAM3 170633Z 21017KT 08/M02 A2976 RMK A01 T00821020  RH  049%=      5-min Rain = 0
KAM3 170634Z 21017G22KT 08/M02 A2976 RMK A01 T00821020  RH  049%=      5-min Rain = 0
KAM3 170635Z 21017KT 08/M02 A2976 RMK A01 T00821020  RH  049%=      5-min Rain = 0
KAM3 170636Z 21018KT 08/M02 A2976 RMK A01 T00821020  RH  049%=      5-min Rain = 0
KAM3 170637Z 21018KT 08/M02 A2976 RMK A01 T00821020  RH  049%=      5-min Rain = 0
KAM3 170638Z 21016G21KT 08/M02 A2976 RMK A01 T00821020  RH  049%=      5-min Rain = 0
KAM3 170639Z 21017KT 08/M02 A2976 RMK A01 T00821020  RH  049%=      5-min Rain = 0
KAM3 170640Z 21018G24KT 08/M02 A2975 RMK A01 T00821019  RH  049%=      5-min Rain = 0
KAM3 170641Z 21019KT 08/M02 A2975 RMK A01 T00821020  RH  049%=      5-min Rain = 0
KAM3 170642Z 21018KT 08/M02 A2975 RMK A01 T00831019  RH  048%=      5-min Rain = 0
KAM3 170643Z 21017KT 08/M02 A2975 RMK A01 T00831019  RH  048%=      5-min Rain = 0
KAM3 170644Z 21017KT 08/M02 A2975 RMK A01 T00831019  RH  049%=      5-min Rain = 0
KAM3 170645Z 21016KT 08/M02 A2975 RMK A01 T00831019  RH  049%=      5-min Rain = 0
KAM3 170646Z 21016KT 08/M02 A2975 RMK A01 T00821019  RH  049%=      5-min Rain = 0
KAM3 170647Z 21015G20KT 08/M02 A2975 RMK A01 T00821020  RH  049%=      5-min Rain = 0
KAM3 170648Z 21017KT 08/M02 A2975 RMK A01 T00821019  RH  049%=      5-min Rain = 0
KAM3 170649Z 21015KT 08/M02 A2975 RMK A01 T00821020  RH  048%=      5-min Rain = 0
KAM3 170650Z 21016G21KT 08/M02 A2975 RMK A01 T00821020  RH  049%=      5-min Rain = 0
KAM3 170651Z 21019KT 08/M02 A2975 RMK A01 T00831020  RH  048%=      5-min Rain = 0
KAM3 170652Z 21017KT 08/M02 A2975 RMK A01 T00841020  RH  048%=      5-min Rain = 0
KAM3 170653Z 21016KT 08/M02 A2975 RMK A01 T00841020  RH  048%=      5-min Rain = 0
KAM3 170654Z 21016KT 09/M02 A2975 RMK A01 T00851020  RH  048%=      5-min Rain = 0
KAM3 170655Z 21017KT 08/M02 A2975 RMK A01 T00841020  RH  048%=      5-min Rain = 0
KAM3 170656Z 21015KT 08/M02 A2975 RMK A01 T00841020  RH  048%=      5-min Rain = 0
KAM3 170657Z 21018KT 08/M02 A2975 RMK A01 T00841020  RH  048%=      5-min Rain = 0
KAM3 170658Z 20017KT 09/M02 A2975 RMK A01 T00851020  RH  047%=      5-min Rain = 0
KAM3 170659Z 20017KT 09/M02 A2975 RMK A01 T00861020  RH  047%=      5-min Rain = 0
KAM3 170700Z 21019KT 09/M02 A2975 RMK A01 T00861021  RH  047%=      5-min Rain = 0
KAM3 170701Z 21018KT 09/M02 A2975 RMK A01 T00881021  RH  046%=      5-min Rain = 0
KAM3 170702Z 20017KT 09/M02 A2975 RMK A01 T00891021  RH  046%=      5-min Rain = 0
KAM3 170703Z 20016KT 09/M02 A2975 RMK A01 T00881021  RH  046%=      5-min Rain = 0
KAM3 170704Z 21019KT 09/M02 A2974 RMK A01 T00881021  RH  046%=      5-min Rain = 0
KAM3 170705Z 20018KT 09/M02 A2974 RMK A01 T00891021  RH  046%=      5-min Rain = 0
KAM3 170706Z 20018KT 09/M02 A2974 RMK A01 T00891022  RH  046%=      5-min Rain = 0
KAM3 170707Z 21017KT 09/M02 A2974 RMK A01 T00901022  RH  045%=      5-min Rain = 0
KAM3 170708Z 21019KT 09/M02 A2974 RMK A01 T00901021  RH  045%=      5-min Rain = 0
KAM3 170709Z 20018KT 09/M02 A2974 RMK A01 T00901021  RH  045%=      5-min Rain = 0
KAM3 170710Z 21018KT 09/M02 A2974 RMK A01 T00911021  RH  045%=      5-min Rain = 0
KAM3 170711Z 20017KT 09/M02 A2974 RMK A01 T00911021  RH  045%=      5-min Rain = 0
KAM3 170712Z 20020KT 09/M02 A2974 RMK A01 T00911022  RH  045%=      5-min Rain = 0
KAM3 170713Z 21017KT 09/M02 A2974 RMK A01 T00921022  RH  045%=      5-min Rain = 0
KAM3 170714Z 20017KT 09/M02 A2974 RMK A01 T00921022  RH  045%=      5-min Rain = 0
KAM3 170715Z 20017G22KT 09/M02 A2974 RMK A01 T00921023  RH  045%=      5-min Rain = 0
KAM3 170716Z 20016KT 09/M02 A2974 RMK A01 T00921022  RH  045%=      5-min Rain = 0
KAM3 170717Z 20018KT 09/M02 A2974 RMK A01 T00911022  RH  045%=      5-min Rain = 0
KAM3 170718Z 20018KT 09/M02 A2974 RMK A01 T00911023  RH  045%=      5-min Rain = 0
KAM3 170719Z 20017KT 09/M02 A2974 RMK A01 T00921023  RH  045%=      5-min Rain = 0
KAM3 170720Z 20019KT 09/M02 A2974 RMK A01 T00921022  RH  045%=      5-min Rain = 0
KAM3 170721Z 20019KT 09/M02 A2974 RMK A01 T00921022  RH  045%=      5-min Rain = 0
KAM3 170722Z 20016KT 09/M02 A2974 RMK A01 T00921022  RH  045%=      5-min Rain = 0
KAM3 170723Z 20018KT 09/M02 A2974 RMK A01 T00921022  RH  045%=      5-min Rain = 0
KAM3 170724Z 20018G23KT 09/M02 A2974 RMK A01 T00911021  RH  045%=      5-min Rain = 0
KAM3 170725Z 20018KT 09/M02 A2974 RMK A01 T00911021  RH  045%=      5-min Rain = 0
KAM3 170726Z 20018KT 09/M02 A2974 RMK A01 T00901022  RH  045%=      5-min Rain = 0
KAM3 170727Z 20018KT 09/M02 A2974 RMK A01 T00901021  RH  046%=      5-min Rain = 0
KAM3 170728Z 20019KT 09/M02 A2973 RMK A01 T00901021  RH  046%=      5-min Rain = 0
KAM3 170729Z 20019KT 09/M02 A2973 RMK A01 T00891021  RH  046%=      5-min Rain = 0
KAM3 170730Z 20018G23KT 09/M02 A2973 RMK A01 T00891021  RH  046%=      5-min Rain = 0
KAM3 170731Z 20018KT 09/M02 A2973 RMK A01 T00881021  RH  046%=      5-min Rain = 0
KAM3 170732Z 20021KT 09/M02 A2973 RMK A01 T00871021  RH  047%=      5-min Rain = 0
KAM3 170733Z 20018KT 09/M02 A2973 RMK A01 T00871021  RH  047%=      5-min Rain = 0
KAM3 170734Z 20017KT 09/M02 A2973 RMK A01 T00861021  RH  047%=      5-min Rain = 0
KAM3 170735Z 20019KT 09/M02 A2973 RMK A01 T00861021  RH  047%=      5-min Rain = 0
KAM3 170736Z 20016KT 09/M02 A2973 RMK A01 T00861021  RH  047%=      5-min Rain = 0
KAM3 170737Z 20018KT 09/M02 A2973 RMK A01 T00861021  RH  047%=      5-min Rain = 0
KAM3 170738Z 20018KT 09/M02 A2973 RMK A01 T00851021  RH  047%=      5-min Rain = 0
KAM3 170739Z 20018KT 09/M02 A2973 RMK A01 T00851021  RH  047%=      5-min Rain = 0
KAM3 170740Z 20019KT 09/M02 A2973 RMK A01 T00861021  RH  047%=      5-min Rain = 0
KAM3 170741Z 20019KT 09/M02 A2973 RMK A01 T00861021  RH  047%=      5-min Rain = 0
KAM3 170742Z 20019KT 09/M02 A2973 RMK A01 T00861021  RH  047%=      5-min Rain = 0
KAM3 170743Z 20017KT 09/M02 A2973 RMK A01 T00861021  RH  047%=      5-min Rain = 0
KAM3 170744Z 20018KT 09/M02 A2973 RMK A01 T00861020  RH  047%=      5-min Rain = 0
KAM3 170745Z 20018KT 09/M02 A2973 RMK A01 T00851021  RH  047%=      5-min Rain = 0
KAM3 170746Z 20019KT 09/M02 A2973 RMK A01 T00851021  RH  047%=      5-min Rain = 0
KAM3 170747Z 20017KT 09/M02 A2973 RMK A01 T00861021  RH  047%=      5-min Rain = 0
KAM3 170748Z 20017KT 09/M02 A2973 RMK A01 T00861020  RH  047%=      5-min Rain = 0
KAM3 170749Z 20018G23KT 09/M02 A2973 RMK A01 T00861020  RH  047%=      5-min Rain = 0
KAM3 170750Z 20018KT 09/M02 A2973 RMK A01 T00851021  RH  047%=      5-min Rain = 0
KAM3 170751Z 20019KT 09/M02 A2973 RMK A01 T00851020  RH  047%=      5-min Rain = 0
KAM3 170752Z 20018KT 09/M02 A2973 RMK A01 T00851020  RH  048%=      5-min Rain = 0
KAM3 170753Z 20019KT 08/M02 A2973 RMK A01 T00841020  RH  048%=      5-min Rain = 0
KAM3 170754Z 20018KT 08/M02 A2973 RMK A01 T00841020  RH  048%=      5-min Rain = 0
KAM3 170755Z 20019KT 08/M02 A2973 RMK A01 T00841020  RH  048%=      5-min Rain = 0
KAM3 170756Z 20017KT 08/M02 A2973 RMK A01 T00841020  RH  048%=      5-min Rain = 0
KAM3 170757Z 20018KT 08/M02 A2973 RMK A01 T00841020  RH  048%=      5-min Rain = 0
KAM3 170758Z 20018KT 08/M02 A2973 RMK A01 T00831020  RH  048%=      5-min Rain = 0
KAM3 170759Z 20018KT 08/M02 A2973 RMK A01 T00821020  RH  048%=      5-min Rain = 0
KAM3 170800Z 20019KT 08/M02 A2973 RMK A01 T00821020  RH  048%=      5-min Rain = 0
KAM3 170801Z 20019KT 08/M02 A2973 RMK A01 T00831020  RH  048%=      5-min Rain = 0
KAM3 170802Z 20019KT 08/M02 A2973 RMK A01 T00831020  RH  048%=      5-min Rain = 0
KAM3 170803Z 20019KT 08/M02 A2973 RMK A01 T00831020  RH  048%=      5-min Rain = 0
KAM3 170804Z 20016KT 08/M02 A2973 RMK A01 T00831020  RH  048%=      5-min Rain = 0
KAM3 170805Z 20019KT 08/M02 A2972 RMK A01 T00831020  RH  048%=      5-min Rain = 0
KAM3 170806Z 20019KT 08/M02 A2972 RMK A01 T00831020  RH  048%=      5-min Rain = 0
KAM3 170807Z 20018KT 08/M02 A2972 RMK A01 T00831020  RH  048%=      5-min Rain = 0
KAM3 170808Z 20018KT 08/M02 A2972 RMK A01 T00831020  RH  048%=      5-min Rain = 0
KAM3 170809Z 20019KT 08/M02 A2972 RMK A01 T00821020  RH  049%=      5-min Rain = 0
KAM3 170810Z 20017KT 08/M02 A2972 RMK A01 T00831020  RH  048%=      5-min Rain = 0
KAM3 170811Z 20019KT 08/M02 A2972 RMK A01 T00821020  RH  049%=      5-min Rain = 0
KAM3 170812Z 20018KT 08/M02 A2972 RMK A01 T00821019  RH  049%=      5-min Rain = 0
KAM3 170813Z 20019KT 08/M02 A2972 RMK A01 T00811020  RH  049%=      5-min Rain = 0
KAM3 170814Z 20017KT 08/M02 A2972 RMK A01 T00811019  RH  049%=      5-min Rain = 0
KAM3 170815Z 20017G22KT 08/M02 A2972 RMK A01 T00801019  RH  050%=      5-min Rain = 0
KAM3 170816Z 20017G22KT 08/M02 A2972 RMK A01 T00791019  RH  050%=      5-min Rain = 0
KAM3 170817Z 20017KT 08/M02 A2972 RMK A01 T00781019  RH  050%=      5-min Rain = 0
KAM3 170818Z 20017KT 08/M02 A2972 RMK A01 T00781019  RH  050%=      5-min Rain = 0
KAM3 170819Z 19016G21KT 08/M02 A2972 RMK A01 T00781019  RH  050%=      5-min Rain = 0
KAM3 170820Z 19017KT 08/M02 A2972 RMK A01 T00781019  RH  050%=      5-min Rain = 0
KAM3 170821Z 19017KT 08/M02 A2972 RMK A01 T00781019  RH  050%=      5-min Rain = 0
KAM3 170822Z 19017KT 08/M02 A2972 RMK A01 T00781019  RH  050%=      5-min Rain = 0
KAM3 170823Z 19015G20KT 08/M02 A2972 RMK A01 T00781019  RH  050%=      5-min Rain = 0
KAM3 170824Z 18015KT 08/M02 A2972 RMK A01 T00771018  RH  051%=      5-min Rain = 0
KAM3 170825Z 19016KT 08/M02 A2972 RMK A01 T00761018  RH  052%=      5-min Rain = 0
KAM3 170826Z 19016KT 07/M02 A2972 RMK A01 T00741018  RH  052%=      5-min Rain = 0
KAM3 170827Z 18017KT 07/M02 A2972 RMK A01 T00731017  RH  053%=      5-min Rain = 0
KAM3 170828Z 18015KT 07/M02 A2972 RMK A01 T00721017  RH  053%=      5-min Rain = 0
KAM3 170829Z 18014KT 07/M02 A2972 RMK A01 T00711017  RH  054%=      5-min Rain = 0
KAM3 170830Z 19015G20KT 07/M02 A2972 RMK A01 T00691017  RH  054%=      5-min Rain = 0
KAM3 170831Z 19016KT 07/M02 A2972 RMK A01 T00681017  RH  055%=      5-min Rain = 0
KAM3 170832Z 18015KT 07/M02 A2972 RMK A01 T00691017  RH  054%=      5-min Rain = 0
KAM3 170833Z 19015KT 07/M02 A2972 RMK A01 T00681017  RH  055%=      5-min Rain = 0
KAM3 170834Z 19016KT 07/M02 A2972 RMK A01 T00681016  RH  055%=      5-min Rain = 0
KAM3 170835Z 19015G20KT 07/M02 A2972 RMK A01 T00681017  RH  055%=      5-min Rain = 0
KAM3 170836Z 18014KT 07/M02 A2972 RMK A01 T00671017  RH  055%=      5-min Rain = 0
KAM3 170837Z 18014KT 07/M02 A2972 RMK A01 T00671017  RH  055%=      5-min Rain = 0
KAM3 170838Z 19014KT 07/M02 A2972 RMK A01 T00661017  RH  055%=      5-min Rain = 0
KAM3 170839Z 18013KT 07/M02 A2972 RMK A01 T00661017  RH  056%=      5-min Rain = 0
KAM3 170840Z 19013KT 07/M02 A2972 RMK A01 T00661017  RH  056%=      5-min Rain = 0
KAM3 170841Z 19012KT 07/M02 A2972 RMK A01 T00651017  RH  056%=      5-min Rain = 0
KAM3 170842Z 19015KT 07/M02 A2972 RMK A01 T00651017  RH  056%=      5-min Rain = 0
KAM3 170843Z 19013KT 07/M02 A2972 RMK A01 T00651017  RH  056%=      5-min Rain = 0
KAM3 170844Z 19013KT 07/M02 A2972 RMK A01 T00651017  RH  056%=      5-min Rain = 0
KAM3 170845Z 19014KT 07/M02 A2972 RMK A01 T00651017  RH  056%=      5-min Rain = 0
KAM3 170846Z 19014KT 07/M02 A2972 RMK A01 T00651017  RH  056%=      5-min Rain = 0
KAM3 170847Z 19013KT 07/M02 A2972 RMK A01 T00651017  RH  056%=      5-min Rain = 0
KAM3 170848Z 19014KT 07/M02 A2972 RMK A01 T00651017  RH  056%=      5-min Rain = 0
KAM3 170849Z 19014KT 07/M02 A2972 RMK A01 T00661017  RH  056%=      5-min Rain = 0
KAM3 170850Z 19012KT 07/M02 A2972 RMK A01 T00661017  RH  055%=      5-min Rain = 0
KAM3 170851Z 19014KT 07/M02 A2972 RMK A01 T00661017  RH  055%=      5-min Rain = 0
KAM3 170852Z 19015KT 07/M02 A2972 RMK A01 T00671017  RH  055%=      5-min Rain = 0
KAM3 170853Z 20015KT 07/M02 A2972 RMK A01 T00681017  RH  055%=      5-min Rain = 0
KAM3 170854Z 19015KT 07/M02 A2972 RMK A01 T00681017  RH  055%=      5-min Rain = 0
KAM3 170855Z 19017KT 07/M02 A2972 RMK A01 T00681017  RH  055%=      5-min Rain = 0
KAM3 170856Z 19014KT 07/M02 A2972 RMK A01 T00691017  RH  054%=      5-min Rain = 0
KAM3 170857Z 19014KT 07/M02 A2972 RMK A01 T00691017  RH  054%=      5-min Rain = 0
KAM3 170858Z 19015KT 07/M02 A2972 RMK A01 T00681017  RH  055%=      5-min Rain = 0
KAM3 170859Z 19014KT 07/M02 A2972 RMK A01 T00681016  RH  055%=      5-min Rain = 0
KAM3 170900Z 19015KT 07/M02 A2971 RMK A01 T00681016  RH  055%=      5-min Rain = 0
KAM3 170901Z 19016KT 07/M02 A2971 RMK A01 T00671017  RH  055%=      5-min Rain = 0
KAM3 170902Z 19015KT 07/M02 A2971 RMK A01 T00671016  RH  055%=      5-min Rain = 0
KAM3 170903Z 19017KT 07/M02 A2971 RMK A01 T00671016  RH  055%=      5-min Rain = 0
KAM3 170904Z 19014KT 07/M02 A2971 RMK A01 T00671016  RH  055%=      5-min Rain = 0
KAM3 170905Z 19014KT 07/M02 A2971 RMK A01 T00671016  RH  055%=      5-min Rain = 0
KAM3 170906Z 19014KT 07/M02 A2971 RMK A01 T00661016  RH  056%=      5-min Rain = 0
KAM3 170907Z 19015KT 07/M02 A2971 RMK A01 T00651016  RH  056%=      5-min Rain = 0
KAM3 170908Z 19015KT 07/M02 A2971 RMK A01 T00651016  RH  056%=      5-min Rain = 0
KAM3 170909Z 19014KT 07/M02 A2971 RMK A01 T00651016  RH  056%=      5-min Rain = 0
KAM3 170910Z 19013KT 06/M02 A2971 RMK A01 T00641016  RH  056%=      5-min Rain = 0
KAM3 170911Z 19014KT 06/M02 A2971 RMK A01 T00641016  RH  057%=      5-min Rain = 0
KAM3 170912Z 19015KT 06/M02 A2971 RMK A01 T00641016  RH  057%=      5-min Rain = 0
KAM3 170913Z 19015KT 06/M02 A2971 RMK A01 T00641016  RH  056%=      5-min Rain = 0
KAM3 170914Z 19013KT 07/M02 A2971 RMK A01 T00651016  RH  056%=      5-min Rain = 0
KAM3 170915Z 19014KT 06/M02 A2971 RMK A01 T00641016  RH  056%=      5-min Rain = 0
KAM3 170916Z 19013KT 06/M02 A2971 RMK A01 T00641016  RH  056%=      5-min Rain = 0
KAM3 170917Z 19012KT 06/M02 A2971 RMK A01 T00641016  RH  057%=      5-min Rain = 0
KAM3 170918Z 19013KT 06/M02 A2971 RMK A01 T00641016  RH  057%=      5-min Rain = 0
KAM3 170919Z 19014KT 06/M02 A297 RMK A01 T00641016  RH  057%=      5-min Rain = 0
KAM3 170920Z 19014KT 06/M02 A297 RMK A01 T00641016  RH  057%=      5-min Rain = 0
KAM3 170921Z 20013KT 06/M02 A297 RMK A01 T00641016  RH  057%=      5-min Rain = 0
KAM3 170922Z 20013KT 06/M02 A297 RMK A01 T00631016  RH  057%=      5-min Rain = 0
KAM3 170923Z 20014KT 06/M02 A297 RMK A01 T00631016  RH  057%=      5-min Rain = 0
KAM3 170924Z 20014KT 06/M02 A297 RMK A01 T00631016  RH  057%=      5-min Rain = 0
KAM3 170925Z 20014KT 06/M02 A297 RMK A01 T00631016  RH  057%=      5-min Rain = 0
KAM3 170926Z 20014KT 06/M02 A297 RMK A01 T00631016  RH  057%=      5-min Rain = 0
KAM3 170927Z 20013KT 06/M02 A297 RMK A01 T00621016  RH  057%=      5-min Rain = 0
KAM3 170928Z 20013KT 06/M02 A297 RMK A01 T00621016  RH  057%=      5-min Rain = 0
KAM3 170929Z 20014KT 06/M02 A297 RMK A01 T00611016  RH  058%=      5-min Rain = 0
KAM3 170930Z 19014KT 06/M02 A297 RMK A01 T00621016  RH  057%=      5-min Rain = 0
KAM3 170931Z 19014KT 06/M02 A297 RMK A01 T00621016  RH  057%=      5-min Rain = 0
KAM3 170932Z 19013KT 06/M02 A297 RMK A01 T00621016  RH  057%=      5-min Rain = 0
KAM3 170933Z 19013KT 06/M02 A297 RMK A01 T00621016  RH  057%=      5-min Rain = 0
KAM3 170934Z 19013KT 06/M02 A297 RMK A01 T00611016  RH  057%=      5-min Rain = 0
KAM3 170935Z 19012KT 06/M02 A297 RMK A01 T00611016  RH  058%=      5-min Rain = 0
KAM3 170936Z 20013KT 06/M02 A297 RMK A01 T00611016  RH  058%=      5-min Rain = 0
KAM3 170937Z 20014KT 06/M02 A2969 RMK A01 T00611016  RH  058%=      5-min Rain = 0
KAM3 170938Z 20014KT 06/M02 A2969 RMK A01 T00611016  RH  058%=      5-min Rain = 0
KAM3 170939Z 20013KT 06/M02 A2969 RMK A01 T00611016  RH  058%=      5-min Rain = 0
KAM3 170940Z 21012KT 06/M02 A2969 RMK A01 T00611016  RH  058%=      5-min Rain = 0
KAM3 170941Z 21012KT 06/M02 A2969 RMK A01 T00601016  RH  058%=      5-min Rain = 0
KAM3 170942Z 21012KT 06/M02 A2969 RMK A01 T00601016  RH  058%=      5-min Rain = 0
KAM3 170943Z 21013KT 06/M02 A2969 RMK A01 T00601016  RH  058%=      5-min Rain = 0
KAM3 170944Z 21012KT 06/M02 A2969 RMK A01 T00601016  RH  058%=      5-min Rain = 0
KAM3 170945Z 21013KT 06/M02 A2969 RMK A01 T00601016  RH  058%=      5-min Rain = 0
KAM3 170946Z 21013KT 06/M02 A2969 RMK A01 T00601016  RH  058%=      5-min Rain = 0
KAM3 170947Z 21012KT 06/M02 A2969 RMK A01 T00601016  RH  058%=      5-min Rain = 0
KAM3 170948Z 21012KT 06/M02 A2969 RMK A01 T00601016  RH  058%=      5-min Rain = 0
KAM3 170949Z 21013KT 06/M02 A2969 RMK A01 T00601016  RH  058%=      5-min Rain = 0
KAM3 170950Z 21012KT 06/M02 A2969 RMK A01 T00591016  RH  058%=      5-min Rain = 0
KAM3 170951Z 21013KT 06/M02 A2969 RMK A01 T00601016  RH  058%=      5-min Rain = 0
KAM3 170952Z 21012KT 06/M02 A2969 RMK A01 T00591016  RH  059%=      5-min Rain = 0
KAM3 170953Z 21013KT 06/M02 A2969 RMK A01 T00581016  RH  059%=      5-min Rain = 0
KAM3 170954Z 21013KT 06/M02 A2969 RMK A01 T00581016  RH  059%=      5-min Rain = 0
KAM3 170955Z 21012KT 06/M02 A2969 RMK A01 T00581016  RH  059%=      5-min Rain = 0
KAM3 170956Z 21013KT 06/M02 A2969 RMK A01 T00571016  RH  059%=      5-min Rain = 0
KAM3 170957Z 21013KT 06/M02 A2969 RMK A01 T00571015  RH  060%=      5-min Rain = 0
KAM3 170958Z 21012KT 06/M02 A2969 RMK A01 T00571015  RH  060%=      5-min Rain = 0
KAM3 170959Z 21012KT 06/M02 A2969 RMK A01 T00571015  RH  060%=      5-min Rain = 0
KAM3 171000Z 21012KT 06/M02 A2969 RMK A01 T00571015  RH  060%=      5-min Rain = 0
KAM3 171001Z 21012KT 06/M02 A2969 RMK A01 T00561015  RH  060%=      5-min Rain = 0
KAM3 171002Z 21012KT 06/M02 A2969 RMK A01 T00561015  RH  060%=      5-min Rain = 0
KAM3 171003Z 21012KT 06/M02 A2969 RMK A01 T00561015  RH  060%=      5-min Rain = 0
KAM3 171004Z 21013KT 06/M02 A2969 RMK A01 T00551015  RH  060%=      5-min Rain = 0
KAM3 171005Z 21012KT 06/M02 A2969 RMK A01 T00561015  RH  060%=      5-min Rain = 0
KAM3 171006Z 20012KT 06/M02 A2969 RMK A01 T00561015  RH  060%=      5-min Rain = 0
KAM3 171007Z 20012KT 06/M02 A2969 RMK A01 T00561015  RH  060%=      5-min Rain = 0
KAM3 171008Z 20011KT 06/M02 A2969 RMK A01 T00551015  RH  061%=      5-min Rain = 0
KAM3 171009Z 20010KT 05/M02 A2969 RMK A01 T00541015  RH  061%=      5-min Rain = 0
KAM3 171010Z 19009KT 05/M02 A2969 RMK A01 T00541015  RH  061%=      5-min Rain = 0
KAM3 171011Z 19009KT 05/M02 A2969 RMK A01 T00531015  RH  061%=      5-min Rain = 0
KAM3 171012Z 18009KT 05/M02 A2969 RMK A01 T00521016  RH  062%=      5-min Rain = 0
KAM3 171013Z 18009KT 05/M02 A2969 RMK A01 T00521016  RH  062%=      5-min Rain = 0
KAM3 171014Z 18009KT 05/M02 A2969 RMK A01 T00511016  RH  062%=      5-min Rain = 0
KAM3 171015Z 18007KT 05/M02 A2969 RMK A01 T00511016  RH  062%=      5-min Rain = 0
KAM3 171016Z 17007KT 05/M02 A2969 RMK A01 T00501016  RH  062%=      5-min Rain = 0
KAM3 171017Z 17007KT 05/M02 A2969 RMK A01 T00501017  RH  062%=      5-min Rain = 0
KAM3 171018Z 18007KT 05/M02 A2969 RMK A01 T00491017  RH  062%=      5-min Rain = 0
KAM3 171019Z 18007KT 05/M02 A2969 RMK A01 T00481017  RH  063%=      5-min Rain = 0
KAM3 171020Z 18008KT 05/M02 A2969 RMK A01 T00471018  RH  063%=      5-min Rain = 0
KAM3 171021Z 18008KT 05/M02 A2969 RMK A01 T00471017  RH  063%=      5-min Rain = 0
KAM3 171022Z 17007KT 05/M02 A2969 RMK A01 T00471017  RH  063%=      5-min Rain = 0
KAM3 171023Z 17007KT 05/M02 A2969 RMK A01 T00481017  RH  063%=      5-min Rain = 0
KAM3 171024Z 18007KT 05/M02 A2969 RMK A01 T00491017  RH  063%=      5-min Rain = 0
KAM3 171025Z 19006KT 05/M02 A2969 RMK A01 T00491017  RH  062%=      5-min Rain = 0
KAM3 171026Z 19006KT 05/M02 A2969 RMK A01 T00491017  RH  062%=      5-min Rain = 0
KAM3 171027Z 19005KT 05/M02 A2969 RMK A01 T00491017  RH  062%=      5-min Rain = 0
KAM3 171028Z 19004KT 05/M02 A2969 RMK A01 T00491017  RH  062%=      5-min Rain = 0
KAM3 171029Z 21005KT 05/M02 A2969 RMK A01 T00491017  RH  062%=      5-min Rain = 0
KAM3 171030Z 21005KT 05/M02 A2969 RMK A01 T00481018  RH  062%=      5-min Rain = 0
KAM3 171031Z 21004KT 05/M02 A2969 RMK A01 T00471018  RH  063%=      5-min Rain = 0
KAM3 171032Z 22004KT 05/M02 A2969 RMK A01 T00461018  RH  063%=      5-min Rain = 0
KAM3 171033Z 22003KT 05/M02 A2969 RMK A01 T00451019  RH  063%=      5-min Rain = 0
KAM3 171034Z 23003KT 04/M02 A2969 RMK A01 T00441019  RH  064%=      5-min Rain = 0
KAM3 171035Z 22003KT 04/M02 A2969 RMK A01 T00431018  RH  064%=      5-min Rain = 0
KAM3 171036Z 21004KT 04/M02 A2969 RMK A01 T00431018  RH  065%=      5-min Rain = 0
KAM3 171037Z 21003KT 04/M02 A2969 RMK A01 T00441017  RH  064%=      5-min Rain = 0
KAM3 171038Z 21003KT 04/M02 A2969 RMK A01 T00441018  RH  064%=      5-min Rain = 0
KAM3 171039Z 22003KT 04/M02 A2969 RMK A01 T00441018  RH  064%=      5-min Rain = 0
KAM3 171040Z 22003KT 04/M02 A2969 RMK A01 T00441018  RH  064%=      5-min Rain = 0
KAM3 171041Z 21002KT 04/M02 A2968 RMK A01 T00441018  RH  064%=      5-min Rain = 0
KAM3 171042Z 23002KT 04/M02 A2968 RMK A01 T00431018  RH  064%=      5-min Rain = 0
KAM3 171043Z 23002KT 04/M02 A2968 RMK A01 T00421018  RH  065%=      5-min Rain = 0
KAM3 171044Z 24003KT 04/M02 A2968 RMK A01 T00421018  RH  065%=      5-min Rain = 0
KAM3 171045Z 23003KT 04/M02 A2968 RMK A01 T00411018  RH  065%=      5-min Rain = 0
KAM3 171046Z 23004KT 04/M02 A2968 RMK A01 T00421017  RH  065%=      5-min Rain = 0
KAM3 171047Z 22005KT 04/M02 A2968 RMK A01 T00421017  RH  065%=      5-min Rain = 0
KAM3 171048Z 23004KT 04/M02 A2968 RMK A01 T00421018  RH  065%=      5-min Rain = 0
KAM3 171049Z 21007KT 04/M02 A2968 RMK A01 T00421018  RH  065%=      5-min Rain = 0
KAM3 171050Z 22007KT 04/M02 A2967 RMK A01 T00431017  RH  065%=      5-min Rain = 0
KAM3 171051Z 22007KT 04/M02 A2967 RMK A01 T00441017  RH  065%=      5-min Rain = 0
KAM3 171052Z 20008KT 04/M02 A2967 RMK A01 T00441017  RH  065%=      5-min Rain = 0
KAM3 171053Z 21007KT 04/M02 A2968 RMK A01 T00441017  RH  065%=      5-min Rain = 0
KAM3 171054Z 21008KT 04/M02 A2968 RMK A01 T00441017  RH  065%=      5-min Rain = 0
KAM3 171055Z 21007KT 04/M02 A2968 RMK A01 T00431018  RH  065%=      5-min Rain = 0
KAM3 171056Z 20007KT 04/M02 A2968 RMK A01 T00411019  RH  065%=      5-min Rain = 0
KAM3 171057Z 19006KT 04/M02 A2968 RMK A01 T00401018  RH  066%=      5-min Rain = 0
KAM3 171058Z 19006KT 04/M02 A2968 RMK A01 T00391018  RH  066%=      5-min Rain = 0
KAM3 171059Z 18006KT 04/M02 A2968 RMK A01 T00391018  RH  067%=      5-min Rain = 0
KAM3 171100Z 18006KT 04/M02 A2968 RMK A01 T00381018  RH  067%=      5-min Rain = 0
KAM3 171101Z 17006KT 04/M02 A2968 RMK A01 T00371018  RH  067%=      5-min Rain = 0
KAM3 171102Z 17006KT 04/M02 A2968 RMK A01 T00361018  RH  068%=      5-min Rain = 0
KAM3 171103Z 17006KT 04/M02 A2968 RMK A01 T00351018  RH  068%=      5-min Rain = 0
KAM3 171104Z 18006KT 03/M02 A2968 RMK A01 T00341018  RH  068%=      5-min Rain = 0
KAM3 171105Z 18007KT 03/M02 A2968 RMK A01 T00341018  RH  069%=      5-min Rain = 0
KAM3 171106Z 18007KT 03/M02 A2968 RMK A01 T00341018  RH  069%=      5-min Rain = 0
KAM3 171107Z 18007KT 04/M02 A2968 RMK A01 T00351018  RH  069%=      5-min Rain = 0
KAM3 171108Z 18008KT 03/M02 A2968 RMK A01 T00341018  RH  068%=      5-min Rain = 0
KAM3 171109Z 18008KT 03/M02 A2968 RMK A01 T00341019  RH  068%=      5-min Rain = 0
KAM3 171110Z 19009KT 03/M02 A2967 RMK A01 T00331018  RH  069%=      5-min Rain = 0
KAM3 171111Z 19009KT 03/M02 A2967 RMK A01 T00341018  RH  069%=      5-min Rain = 0
KAM3 171112Z 19009KT 03/M02 A2967 RMK A01 T00341018  RH  069%=      5-min Rain = 0
KAM3 171113Z 19009KT 03/M02 A2967 RMK A01 T00341018  RH  069%=      5-min Rain = 0
KAM3 171114Z 19010KT 03/M02 A2967 RMK A01 T00341018  RH  069%=      5-min Rain = 0
KAM3 171115Z 19010KT 03/M02 A2967 RMK A01 T00341018  RH  069%=      5-min Rain = 0
KAM3 171116Z 19010KT 03/M02 A2967 RMK A01 T00341018  RH  069%=      5-min Rain = 0
KAM3 171117Z 19009KT 03/M02 A2967 RMK A01 T00341018  RH  069%=      5-min Rain = 0
KAM3 171118Z 19009KT 04/M02 A2967 RMK A01 T00351018  RH  069%=      5-min Rain = 0
KAM3 171119Z 19009KT 04/M02 A2967 RMK A01 T00351018  RH  069%=      5-min Rain = 0
KAM3 171120Z 19010KT 04/M02 A2967 RMK A01 T00351017  RH  069%=      5-min Rain = 0
KAM3 171121Z 19009KT 04/M02 A2967 RMK A01 T00351018  RH  069%=      5-min Rain = 0
KAM3 171122Z 19009KT 04/M02 A2967 RMK A01 T00361017  RH  068%=      5-min Rain = 0
KAM3 171123Z 19009KT 04/M02 A2967 RMK A01 T00371016  RH  068%=      5-min Rain = 0
KAM3 171124Z 19009KT 04/M02 A2967 RMK A01 T00381016  RH  067%=      5-min Rain = 0
KAM3 171125Z 19009KT 04/M02 A2967 RMK A01 T00391017  RH  067%=      5-min Rain = 0
KAM3 171126Z 19009KT 04/M02 A2967 RMK A01 T00391017  RH  067%=      5-min Rain = 0
KAM3 171127Z 19009KT 04/M02 A2967 RMK A01 T00401017  RH  067%=      5-min Rain = 0
KAM3 171128Z 19009KT 04/M02 A2967 RMK A01 T00401017  RH  066%=      5-min Rain = 0
KAM3 171129Z 19009KT 04/M02 A2967 RMK A01 T00401017  RH  066%=      5-min Rain = 0
KAM3 171130Z 19010KT 04/M02 A2967 RMK A01 T00411017  RH  066%=      5-min Rain = 0
KAM3 171131Z 19010KT 04/M02 A2967 RMK A01 T00411016  RH  066%=      5-min Rain = 0
KAM3 171132Z 19011KT 04/M02 A2967 RMK A01 T00421017  RH  066%=      5-min Rain = 0
KAM3 171133Z 19011KT 04/M02 A2967 RMK A01 T00421016  RH  066%=      5-min Rain = 0
KAM3 171134Z 19011KT 04/M02 A2967 RMK A01 T00441016  RH  065%=      5-min Rain = 0
KAM3 171135Z 19011KT 04/M02 A2967 RMK A01 T00441016  RH  065%=      5-min Rain = 0
KAM3 171136Z 19011KT 05/M02 A2967 RMK A01 T00451016  RH  065%=      5-min Rain = 0
KAM3 171137Z 19011KT 04/M02 A2967 RMK A01 T00441016  RH  065%=      5-min Rain = 0
KAM3 171138Z 19012KT 05/M02 A2967 RMK A01 T00451015  RH  065%=      5-min Rain = 0
KAM3 171139Z 19012KT 05/M02 A2967 RMK A01 T00451015  RH  065%=      5-min Rain = 0
KAM3 171140Z 19012KT 05/M02 A2967 RMK A01 T00471015  RH  064%=      5-min Rain = 0
KAM3 171141Z 20013KT 05/M02 A2967 RMK A01 T00481015  RH  064%=      5-min Rain = 0
KAM3 171142Z 20012KT 05/M02 A2967 RMK A01 T00491015  RH  063%=      5-min Rain = 0
KAM3 171143Z 20012KT 05/M02 A2966 RMK A01 T00491015  RH  063%=      5-min Rain = 0
KAM3 171144Z 20011KT 05/M02 A2966 RMK A01 T00481015  RH  063%=      5-min Rain = 0
KAM3 171145Z 20011KT 05/M02 A2966 RMK A01 T00471016  RH  064%=      5-min Rain = 0
KAM3 171146Z 20011KT 05/M02 A2966 RMK A01 T00461016  RH  064%=      5-min Rain = 0
KAM3 171147Z 20011KT 05/M02 A2966 RMK A01 T00451016  RH  064%=      5-min Rain = 0
KAM3 171148Z 20011KT 04/M02 A2966 RMK A01 T00441017  RH  065%=      5-min Rain = 0
KAM3 171149Z 20011KT 04/M02 A2966 RMK A01 T00431016  RH  065%=      5-min Rain = 0
KAM3 171150Z 20011KT 04/M02 A2966 RMK A01 T00431017  RH  065%=      5-min Rain = 0
KAM3 171151Z 21012KT 04/M02 A2966 RMK A01 T00421017  RH  065%=      5-min Rain = 0
KAM3 171152Z 20011KT 04/M02 A2966 RMK A01 T00421017  RH  066%=      5-min Rain = 0
KAM3 171153Z 20010KT 04/M02 A2966 RMK A01 T00411017  RH  066%=      5-min Rain = 0
KAM3 171154Z 20011KT 04/M02 A2966 RMK A01 T00411017  RH  066%=      5-min Rain = 0
KAM3 171155Z 20010KT 04/M02 A2966 RMK A01 T00401017  RH  066%=      5-min Rain = 0
KAM3 171156Z 20009KT 04/M02 A2966 RMK A01 T00401017  RH  067%=      5-min Rain = 0
KAM3 171157Z 20009KT 04/M02 A2966 RMK A01 T00391017  RH  067%=      5-min Rain = 0
KAM3 171158Z 21008KT 04/M02 A2967 RMK A01 T00391017  RH  067%=      5-min Rain = 0
KAM3 171159Z 21008KT 04/M02 A2967 RMK A01 T00381017  RH  067%=      5-min Rain = 0
KAM3 171200Z 21007KT 04/M02 A2967 RMK A01 T00371018  RH  067%=      5-min Rain = 0
KAM3 171201Z 20007KT 04/M02 A2967 RMK A01 T00361018  RH  068%=      5-min Rain = 0
KAM3 171202Z 20007KT 04/M02 A2967 RMK A01 T00351018  RH  068%=      5-min Rain = 0
KAM3 171203Z 20006KT 04/M02 A2967 RMK A01 T00351018  RH  068%=      5-min Rain = 0
KAM3 171204Z 19006KT 03/M02 A2967 RMK A01 T00341018  RH  069%=      5-min Rain = 0
KAM3 171205Z 19006KT 03/M02 A2967 RMK A01 T00341018  RH  069%=      5-min Rain = 0
KAM3 171206Z 18006KT 03/M02 A2967 RMK A01 T00341018  RH  069%=      5-min Rain = 0
KAM3 171207Z 17006KT 03/M02 A2967 RMK A01 T00331018  RH  069%=      5-min Rain = 0
KAM3 171208Z 17005KT 03/M02 A2967 RMK A01 T00331018  RH  069%=      5-min Rain = 0
KAM3 171209Z 17006KT 03/M02 A2967 RMK A01 T00331019  RH  069%=      5-min Rain = 0
KAM3 171210Z 16005KT 03/M02 A2967 RMK A01 T00321019  RH  069%=      5-min Rain = 0
KAM3 171211Z 17006KT 03/M02 A2967 RMK A01 T00321019  RH  069%=      5-min Rain = 0
KAM3 171212Z 17007KT 03/M02 A2967 RMK A01 T00311019  RH  069%=      5-min Rain = 0
KAM3 171213Z 17007KT 03/M02 A2967 RMK A01 T00311019  RH  070%=      5-min Rain = 0
KAM3 171214Z 17008KT 03/M02 A2967 RMK A01 T00311019  RH  070%=      5-min Rain = 0
KAM3 171215Z 18009KT 03/M02 A2967 RMK A01 T00311019  RH  070%=      5-min Rain = 0
KAM3 171216Z 18009KT 03/M02 A2967 RMK A01 T00311019  RH  070%=      5-min Rain = 0
KAM3 171217Z 19009KT 03/M02 A2967 RMK A01 T00321018  RH  070%=      5-min Rain = 0
KAM3 171218Z 19008KT 03/M02 A2967 RMK A01 T00331018  RH  069%=      5-min Rain = 0
KAM3 171219Z 19010KT 04/M02 A2967 RMK A01 T00351017  RH  069%=      5-min Rain = 0
KAM3 171220Z 19011KT 04/M02 A2967 RMK A01 T00371016  RH  068%=      5-min Rain = 0
KAM3 171221Z 19010KT 04/M02 A2967 RMK A01 T00401015  RH  068%=      5-min Rain = 0
KAM3 171222Z 19010KT 04/M02 A2967 RMK A01 T00411015  RH  067%=      5-min Rain = 0
KAM3 171223Z 19010KT 04/M02 A2967 RMK A01 T00431015  RH  066%=      5-min Rain = 0
KAM3 171224Z 19010KT 04/M02 A2967 RMK A01 T00441015  RH  066%=      5-min Rain = 0
KAM3 171225Z 18010KT 05/M02 A2967 RMK A01 T00451015  RH  065%=      5-min Rain = 0
KAM3 171226Z 18008KT 05/M02 A2967 RMK A01 T00451015  RH  065%=      5-min Rain = 0
KAM3 171227Z 16007KT 04/M02 A2967 RMK A01 T00441016  RH  065%=      5-min Rain = 0
KAM3 171228Z 15009KT 04/M02 A2967 RMK A01 T00381019  RH  066%=      5-min Rain = 0
KAM3 171229Z 16009KT 03/M02 A2967 RMK A01 T00341019  RH  068%=      5-min Rain = 0
KAM3 171230Z 16009KT 03/M02 A2967 RMK A01 T00311019  RH  070%=      5-min Rain = 0
KAM3 171231Z 16009KT 03/M02 A2967 RMK A01 T00291018  RH  071%=      5-min Rain = 0
KAM3 171232Z 16010KT 03/M02 A2967 RMK A01 T00291017  RH  072%=      5-min Rain = 0
KAM3 171233Z 17010KT 03/M02 A2967 RMK A01 T00281017  RH  072%=      5-min Rain = 0
KAM3 171234Z 17010KT 03/M02 A2967 RMK A01 T00281017  RH  072%=      5-min Rain = 0
KAM3 171235Z 18011KT 03/M02 A2967 RMK A01 T00281017  RH  072%=      5-min Rain = 0
KAM3 171236Z 18011KT 03/M02 A2966 RMK A01 T00291016  RH  072%=      5-min Rain = 0
KAM3 171237Z 18011KT 03/M02 A2966 RMK A01 T00301015  RH  072%=      5-min Rain = 0
KAM3 171238Z 18011KT 03/M02 A2966 RMK A01 T00321015  RH  072%=      5-min Rain = 0
KAM3 171239Z 18011KT 03/M01 A2966 RMK A01 T00331014  RH  071%=      5-min Rain = 0
KAM3 171240Z 18012KT 03/M01 A2966 RMK A01 T00341014  RH  071%=      5-min Rain = 0
KAM3 171241Z 18011KT 04/M01 A2966 RMK A01 T00351014  RH  070%=      5-min Rain = 0
KAM3 171242Z 18011KT 04/M01 A2967 RMK A01 T00361014  RH  070%=      5-min Rain = 0
KAM3 171243Z 18011KT 04/M01 A2967 RMK A01 T00361014  RH  070%=      5-min Rain = 0
KAM3 171244Z 18010KT 04/M01 A2967 RMK A01 T00361014  RH  070%=      5-min Rain = 0
KAM3 171245Z 18010KT 04/M01 A2967 RMK A01 T00361014  RH  070%=      5-min Rain = 0
KAM3 171246Z 18010KT 04/M01 A2967 RMK A01 T00361014  RH  070%=      5-min Rain = 0
KAM3 171247Z 18010KT 04/M01 A2967 RMK A01 T00361014  RH  070%=      5-min Rain = 0
KAM3 171248Z 18010KT 04/M02 A2967 RMK A01 T00351015  RH  070%=      5-min Rain = 0
KAM3 171249Z 18011KT 03/M01 A2967 RMK A01 T00341014  RH  070%=      5-min Rain = 0
KAM3 171250Z 18010KT 03/M02 A2967 RMK A01 T00341015  RH  070%=      5-min Rain = 0
KAM3 171251Z 17009KT 03/M02 A2967 RMK A01 T00331015  RH  071%=      5-min Rain = 0
KAM3 171252Z 17009KT 03/M02 A2967 RMK A01 T00321016  RH  071%=      5-min Rain = 0
KAM3 171253Z 17009KT 03/M02 A2967 RMK A01 T00301016  RH  072%=      5-min Rain = 0
KAM3 171254Z 17009KT 03/M02 A2967 RMK A01 T00281017  RH  072%=      5-min Rain = 0
KAM3 171255Z 17010KT 03/M02 A2967 RMK A01 T00261018  RH  073%=      5-min Rain = 0
KAM3 171256Z 17010KT 02/M02 A2967 RMK A01 T00241017  RH  074%=      5-min Rain = 0
KAM3 171257Z 17010KT 02/M02 A2967 RMK A01 T00231017  RH  075%=      5-min Rain = 0
KAM3 171258Z 17010KT 02/M02 A2967 RMK A01 T00221017  RH  075%=      5-min Rain = 0
KAM3 171259Z 18010KT 02/M02 A2967 RMK A01 T00221017  RH  075%=      5-min Rain = 0
KAM3 171300Z 18010KT 02/M02 A2967 RMK A01 T00221017  RH  076%=      5-min Rain = 0
KAM3 171301Z 18010KT 02/M02 A2967 RMK A01 T00221017  RH  076%=      5-min Rain = 0
KAM3 171302Z 18010KT 02/M02 A2967 RMK A01 T00221016  RH  076%=      5-min Rain = 0
KAM3 171303Z 18009KT 02/M02 A2967 RMK A01 T00221017  RH  076%=      5-min Rain = 0
KAM3 171304Z 18009KT 02/M02 A2967 RMK A01 T00231016  RH  075%=      5-min Rain = 0
KAM3 171305Z 17008KT 02/M02 A2967 RMK A01 T00231016  RH  075%=      5-min Rain = 0
KAM3 171306Z 17008KT 02/M02 A2967 RMK A01 T00221017  RH  075%=      5-min Rain = 0
KAM3 171307Z 17008KT 02/M02 A2967 RMK A01 T00211018  RH  076%=      5-min Rain = 0
KAM3 171308Z 16007KT 02/M02 A2967 RMK A01 T00201018  RH  076%=      5-min Rain = 0
KAM3 171309Z 16007KT 02/M02 A2967 RMK A01 T00191018  RH  077%=      5-min Rain = 0
KAM3 171310Z 16007KT 02/M02 A2967 RMK A01 T00171019  RH  077%=      5-min Rain = 0
KAM3 171311Z 16007KT 02/M02 A2967 RMK A01 T00161019  RH  078%=      5-min Rain = 0
KAM3 171312Z 15006KT 02/M02 A2967 RMK A01 T00151019  RH  078%=      5-min Rain = 0
KAM3 171313Z 16007KT 01/M02 A2967 RMK A01 T00141019  RH  079%=      5-min Rain = 0
KAM3 171314Z 17006KT 01/M02 A2967 RMK A01 T00121020  RH  079%=      5-min Rain = 0
KAM3 171315Z 17006KT 01/M02 A2967 RMK A01 T00111020  RH  079%=      5-min Rain = 0
KAM3 171316Z 17006KT 01/M02 A2967 RMK A01 T00111020  RH  080%=      5-min Rain = 0
KAM3 171317Z 17006KT 01/M02 A2967 RMK A01 T00111019  RH  080%=      5-min Rain = 0
KAM3 171318Z 18006KT 01/M02 A2967 RMK A01 T00111019  RH  080%=      5-min Rain = 0
KAM3 171319Z 18005KT 01/M02 A2967 RMK A01 T00111019  RH  080%=      5-min Rain = 0
KAM3 171320Z 18006KT 01/M02 A2967 RMK A01 T00111020  RH  080%=      5-min Rain = 0
KAM3 171321Z 18005KT 01/M02 A2967 RMK A01 T00111020  RH  080%=      5-min Rain = 0
KAM3 171322Z 18004KT 01/M02 A2967 RMK A01 T00111020  RH  079%=      5-min Rain = 0
KAM3 171323Z 18004KT 01/M02 A2967 RMK A01 T00111020  RH  079%=      5-min Rain = 0
KAM3 171324Z 18003KT 01/M02 A2968 RMK A01 T00111021  RH  079%=      5-min Rain = 0
KAM3 171325Z 18003KT 01/M02 A2968 RMK A01 T00111021  RH  080%=      5-min Rain = 0
KAM3 171326Z 19002KT 01/M02 A2968 RMK A01 T00101021  RH  080%=      5-min Rain = 0
KAM3 171327Z 19002KT 01/M02 A2968 RMK A01 T00091022  RH  080%=      5-min Rain = 0
KAM3 171328Z 19001KT 01/M02 A2968 RMK A01 T00091022  RH  080%=      5-min Rain = 0
KAM3 171329Z 18001KT 01/M02 A2968 RMK A01 T00081023  RH  080%=      5-min Rain = 0
KAM3 171330Z 18002KT 01/M02 A2968 RMK A01 T00071024  RH  080%=      5-min Rain = 0
KAM3 171331Z 20002KT 01/M02 A2968 RMK A01 T00061024  RH  080%=      5-min Rain = 0
KAM3 171332Z 21003KT 01/M02 A2968 RMK A01 T00061023  RH  081%=      5-min Rain = 0
KAM3 171333Z 21003KT 01/M02 A2968 RMK A01 T00061022  RH  081%=      5-min Rain = 0
KAM3 171334Z 21003KT 01/M02 A2968 RMK A01 T00071022  RH  082%=      5-min Rain = 0
KAM3 171335Z 21004KT 01/M02 A2968 RMK A01 T00061022  RH  081%=      5-min Rain = 0
KAM3 171336Z 21004KT 01/M02 A2968 RMK A01 T00071022  RH  081%=      5-min Rain = 0
KAM3 171337Z 20004KT 01/M02 A2968 RMK A01 T00081021  RH  081%=      5-min Rain = 0
KAM3 171338Z 21004KT 01/M02 A2968 RMK A01 T00091020  RH  081%=      5-min Rain = 0
KAM3 171339Z 21005KT 01/M02 A2968 RMK A01 T00101021  RH  080%=      5-min Rain = 0
KAM3 171340Z 20006KT 01/M02 A2968 RMK A01 T00111021  RH  079%=      5-min Rain = 0
KAM3 171341Z 20007KT 01/M02 A2968 RMK A01 T00111021  RH  079%=      5-min Rain = 0
KAM3 171342Z 20007KT 01/M02 A2968 RMK A01 T00111022  RH  078%=      5-min Rain = 0
KAM3 171343Z 20007KT 01/M02 A2968 RMK A01 T00111022  RH  078%=      5-min Rain = 0
KAM3 171344Z 20007KT 01/M02 A2968 RMK A01 T00121022  RH  078%=      5-min Rain = 0
KAM3 171345Z 21007KT 01/M02 A2968 RMK A01 T00121022  RH  078%=      5-min Rain = 0
KAM3 171346Z 21006KT 01/M02 A2968 RMK A01 T00131020  RH  079%=      5-min Rain = 0
KAM3 171347Z 21006KT 01/M02 A2968 RMK A01 T00141019  RH  078%=      5-min Rain = 0
KAM3 171348Z 21006KT 02/M02 A2968 RMK A01 T00161019  RH  078%=      5-min Rain = 0
KAM3 171349Z 21006KT 02/M02 A2968 RMK A01 T00181018  RH  077%=      5-min Rain = 0
KAM3 171350Z 21006KT 02/M02 A2968 RMK A01 T00191018  RH  076%=      5-min Rain = 0
KAM3 171351Z 20005KT 02/M02 A2968 RMK A01 T00211017  RH  076%=      5-min Rain = 0
KAM3 171352Z 20005KT 02/M02 A2968 RMK A01 T00211018  RH  075%=      5-min Rain = 0
KAM3 171353Z 19005KT 02/M02 A2968 RMK A01 T00221018  RH  075%=      5-min Rain = 0
KAM3 171354Z 19004KT 02/M02 A2969 RMK A01 T00231017  RH  075%=      5-min Rain = 0
KAM3 171355Z 20004KT 02/M02 A2969 RMK A01 T00231018  RH  075%=      5-min Rain = 0
KAM3 171356Z 20004KT 02/M02 A2969 RMK A01 T00231018  RH  075%=      5-min Rain = 0
KAM3 171357Z 20004KT 02/M02 A2969 RMK A01 T00231018  RH  075%=      5-min Rain = 0
KAM3 171358Z 20003KT 02/M02 A2969 RMK A01 T00231018  RH  074%=      5-min Rain = 0
KAM3 171359Z 20003KT 02/M02 A2969 RMK A01 T00231018  RH  074%=      5-min Rain = 0
KAM3 171400Z 20003KT 02/M02 A2969 RMK A01 T00231018  RH  074%=      5-min Rain = 0
KAM3 171401Z 19003KT 02/M02 A2969 RMK A01 T00241017  RH  074%=      5-min Rain = 0
KAM3 171402Z 19002KT 03/M02 A2969 RMK A01 T00251017  RH  074%=      5-min Rain = 0
KAM3 171403Z 19002KT 03/M02 A2969 RMK A01 T00271016  RH  074%=      5-min Rain = 0
KAM3 171404Z 20002KT 03/M02 A2969 RMK A01 T00281016  RH  073%=      5-min Rain = 0
KAM3 171405Z 21002KT 03/M02 A2969 RMK A01 T00281017  RH  072%=      5-min Rain = 0
KAM3 171406Z 22002KT 03/M02 A2969 RMK A01 T00281018  RH  072%=      5-min Rain = 0
KAM3 171407Z 22002KT 03/M02 A2969 RMK A01 T00271018  RH  073%=      5-min Rain = 0
KAM3 171408Z 21002KT 03/M02 A2969 RMK A01 T00251017  RH  073%=      5-min Rain = 0
KAM3 171409Z 20002KT 03/M02 A2969 RMK A01 T00251016  RH  074%=      5-min Rain = 0
KAM3 171410Z 18002KT 03/M01 A297 RMK A01 T00281014  RH  074%=      5-min Rain = 0
KAM3 171411Z 17003KT 03/M01 A297 RMK A01 T00301013  RH  073%=      5-min Rain = 0
KAM3 171412Z 16003KT 03/M01 A297 RMK A01 T00321013  RH  072%=      5-min Rain = 0
KAM3 171413Z 16003KT 03/M01 A297 RMK A01 T00331013  RH  072%=      5-min Rain = 0
KAM3 171414Z 15002KT 03/M01 A297 RMK A01 T00341011  RH  072%=      5-min Rain = 0
KAM3 171415Z 15003KT 04/M01 A297 RMK A01 T00361010  RH  072%=      5-min Rain = 0
KAM3 171416Z 14003KT 04/M01 A297 RMK A01 T00381009  RH  071%=      5-min Rain = 0
KAM3 171417Z 14003KT 04/M01 A297 RMK A01 T00391010  RH  071%=      5-min Rain = 0
KAM3 171418Z 15004KT 04/M01 A297 RMK A01 T00391010  RH  070%=      5-min Rain = 0
KAM3 171419Z 16003KT 04/M01 A297 RMK A01 T00391010  RH  070%=      5-min Rain = 0
KAM3 171420Z 15002KT 04/M01 A297 RMK A01 T00391012  RH  069%=      5-min Rain = 0
KAM3 171421Z 16003KT 04/M01 A297 RMK A01 T00391012  RH  069%=      5-min Rain = 0
KAM3 171422Z 16004KT 04/M01 A297 RMK A01 T00401010  RH  070%=      5-min Rain = 0
KAM3 171423Z 16003KT 04/M01 A297 RMK A01 T00411011  RH  069%=      5-min Rain = 0
KAM3 171424Z 16002KT 04/M01 A297 RMK A01 T00411011  RH  069%=      5-min Rain = 0
KAM3 171425Z 15003KT 04/M01 A297 RMK A01 T00421010  RH  069%=      5-min Rain = 0
KAM3 171426Z 15003KT 04/M01 A297 RMK A01 T00431010  RH  068%=      5-min Rain = 0
KAM3 171427Z 14003KT 04/M01 A297 RMK A01 T00441011  RH  068%=      5-min Rain = 0
KAM3 171428Z 15004KT 05/M01 A297 RMK A01 T00451010  RH  067%=      5-min Rain = 0
KAM3 171429Z 14004KT 05/M01 A297 RMK A01 T00451011  RH  067%=      5-min Rain = 0
KAM3 171430Z 11003KT 05/M01 A297 RMK A01 T00451010  RH  068%=      5-min Rain = 0
KAM3 171431Z 10003KT 05/M01 A297 RMK A01 T00451010  RH  068%=      5-min Rain = 0
KAM3 171432Z 11003KT 04/M01 A297 RMK A01 T00431009  RH  069%=      5-min Rain = 0
KAM3 171433Z 10002KT 04/M01 A297 RMK A01 T00421010  RH  069%=      5-min Rain = 0
KAM3 171434Z 11002KT 04/M01 A297 RMK A01 T00411009  RH  070%=      5-min Rain = 0
KAM3 171435Z 11003KT 04/M01 A297 RMK A01 T00411009  RH  070%=      5-min Rain = 0
KAM3 171436Z 11003KT 04/M01 A297 RMK A01 T00411008  RH  070%=      5-min Rain = 0
KAM3 171437Z 11003KT 04/M01 A297 RMK A01 T00411008  RH  071%=      5-min Rain = 0
KAM3 171438Z 10003KT 04/M01 A297 RMK A01 T00421007  RH  071%=      5-min Rain = 0
KAM3 171439Z 11003KT 04/M01 A297 RMK A01 T00421008  RH  070%=      5-min Rain = 0
KAM3 171440Z 11003KT 04/M01 A297 RMK A01 T00431006  RH  071%=      5-min Rain = 0
KAM3 171441Z 11003KT 04/M01 A297 RMK A01 T00441006  RH  070%=      5-min Rain = 0
KAM3 171442Z 12002KT 04/M01 A297 RMK A01 T00441006  RH  070%=      5-min Rain = 0
KAM3 171443Z 12003KT 05/M01 A297 RMK A01 T00451005  RH  070%=      5-min Rain = 0
KAM3 171444Z 13004KT 05/M01 A297 RMK A01 T00461006  RH  069%=      5-min Rain = 0
KAM3 171445Z 13004KT 05/M01 A297 RMK A01 T00461007  RH  068%=      5-min Rain = 0
KAM3 171446Z 12004KT 05/M01 A297 RMK A01 T00471006  RH  069%=      5-min Rain = 0
KAM3 171447Z 11004KT 05/M01 A297 RMK A01 T00471006  RH  068%=      5-min Rain = 0
KAM3 171448Z 12004KT 05/M01 A297 RMK A01 T00471005  RH  069%=      5-min Rain = 0
KAM3 171449Z 12005KT 05/M01 A297 RMK A01 T00481005  RH  068%=      5-min Rain = 0
KAM3 171450Z 12005KT 05/M01 A297 RMK A01 T00491005  RH  068%=      5-min Rain = 0
KAM3 171451Z 14004KT 05/M01 A2971 RMK A01 T00501006  RH  067%=      5-min Rain = 0
KAM3 171452Z 15004KT 05/M01 A2971 RMK A01 T00501005  RH  068%=      5-min Rain = 0
KAM3 171453Z 15004KT 05/M01 A297 RMK A01 T00511005  RH  067%=      5-min Rain = 0
KAM3 171454Z 14003KT 05/M01 A297 RMK A01 T00521006  RH  066%=      5-min Rain = 0
KAM3 171455Z 14003KT 05/M00 A297 RMK A01 T00531004  RH  067%=      5-min Rain = 0
KAM3 171456Z 14003KT 06/M00 A297 RMK A01 T00551003  RH  066%=      5-min Rain = 0
KAM3 171457Z 13003KT 06/M01 A297 RMK A01 T00551005  RH  065%=      5-min Rain = 0
KAM3 171458Z 14003KT 06/M00 A297 RMK A01 T00571003  RH  066%=      5-min Rain = 0
KAM3 171459Z 13003KT 06/M00 A297 RMK A01 T00581004  RH  064%=      5-min Rain = 0
KAM3 171500Z 13003KT 06/M01 A297 RMK A01 T00581005  RH  064%=      5-min Rain = 0
KAM3 171501Z 14003KT 06/M00 A2971 RMK A01 T00591004  RH  064%=      5-min Rain = 0
KAM3 171502Z 14003KT 06/M00 A2971 RMK A01 T00611003  RH  064%=      5-min Rain = 0
KAM3 171503Z 16003KT 06/M00 A2971 RMK A01 T00621003  RH  063%=      5-min Rain = 0
KAM3 171504Z 16004KT 06/M00 A2971 RMK A01 T00631003  RH  063%=      5-min Rain = 0
KAM3 171505Z 18006KT 07/M00 A2971 RMK A01 T00651002  RH  062%=      5-min Rain = 0
KAM3 171506Z 19006KT 07/M00 A2971 RMK A01 T00681004  RH  060%=      5-min Rain = 0
KAM3 171507Z 19004KT 07/M00 A2971 RMK A01 T00711004  RH  059%=      5-min Rain = 0
KAM3 171508Z 18005KT 07/M00 A2971 RMK A01 T00741002  RH  059%=      5-min Rain = 0
KAM3 171509Z 19005KT 08/M00 A2971 RMK A01 T00761003  RH  057%=      5-min Rain = 0
KAM3 171510Z 19004KT 08/M00 A2971 RMK A01 T00771004  RH  056%=      5-min Rain = 0
KAM3 171511Z 20005KT 08/M00 A2971 RMK A01 T00771004  RH  057%=      5-min Rain = 0
KAM3 171512Z 18004KT 08/M00 A297 RMK A01 T00771004  RH  056%=      5-min Rain = 0
KAM3 171513Z 18006KT 08/M00 A297 RMK A01 T00791003  RH  056%=      5-min Rain = 0
KAM3 171514Z 19006KT 08/M00 A297 RMK A01 T00801003  RH  056%=      5-min Rain = 0
KAM3 171515Z 17008KT 08/M00 A297 RMK A01 T00821002  RH  056%=      5-min Rain = 0
KAM3 171516Z 17008KT 08/M01 A297 RMK A01 T00831005  RH  054%=      5-min Rain = 0
KAM3 171517Z 18007KT 08/M01 A297 RMK A01 T00831005  RH  054%=      5-min Rain = 0
KAM3 171518Z 17006KT 08/M00 A297 RMK A01 T00831002  RH  055%=      5-min Rain = 0
KAM3 171519Z 17007KT 09/M00 A297 RMK A01 T00851001  RH  055%=      5-min Rain = 0
KAM3 171520Z 18006KT 09/M00 A2971 RMK A01 T00861002  RH  054%=      5-min Rain = 0
KAM3 171521Z 19007KT 09/M00 A2971 RMK A01 T00871002  RH  054%=      5-min Rain = 0
KAM3 171522Z 20008KT 09/M00 A2971 RMK A01 T00881002  RH  053%=      5-min Rain = 0
KAM3 171523Z 20007KT 09/M00 A2971 RMK A01 T00881003  RH  053%=      5-min Rain = 0
KAM3 171524Z 19007KT 09/M00 A2971 RMK A01 T00881002  RH  053%=      5-min Rain = 0
KAM3 171525Z 20006KT 09/M00 A2971 RMK A01 T00881002  RH  053%=      5-min Rain = 0
KAM3 171526Z 20008KT 09/M00 A2971 RMK A01 T00891003  RH  053%=      5-min Rain = 0
KAM3 171527Z 21009KT 09/M00 A2971 RMK A01 T00891004  RH  052%=      5-min Rain = 0
KAM3 171528Z 20010KT 09/M00 A2971 RMK A01 T00891004  RH  052%=      5-min Rain = 0
KAM3 171529Z 23009KT 09/M00 A2971 RMK A01 T00891004  RH  052%=      5-min Rain = 0
KAM3 171530Z 21007KT 09/M00 A2971 RMK A01 T00891003  RH  052%=      5-min Rain = 0
KAM3 171531Z 20008KT 09/M00 A2971 RMK A01 T00891003  RH  052%=      5-min Rain = 0
KAM3 171532Z 20008KT 09/M00 A2971 RMK A01 T00901004  RH  052%=      5-min Rain = 0
KAM3 171533Z 23006KT 09/00 A2971 RMK A01 T009100-0  RH  053%=      5-min Rain = 0
KAM3 171534Z 22007KT 09/M00 A2971 RMK A01 T00921001  RH  052%=      5-min Rain = 0
KAM3 171535Z 21007KT 09/M01 A2971 RMK A01 T00921005  RH  051%=      5-min Rain = 0
KAM3 171536Z 20009KT 09/M00 A297 RMK A01 T00921003  RH  051%=      5-min Rain = 0
KAM3 171537Z 21009KT 09/M00 A297 RMK A01 T00931004  RH  051%=      5-min Rain = 0
KAM3 171538Z 20009KT 09/M00 A297 RMK A01 T00931004  RH  051%=      5-min Rain = 0
KAM3 171539Z 20007KT 09/M00 A297 RMK A01 T00931004  RH  050%=      5-min Rain = 0
KAM3 171540Z 22008KT 09/M00 A297 RMK A01 T00941003  RH  051%=      5-min Rain = 0
KAM3 171541Z 20007KT 10/M00 A297 RMK A01 T00951003  RH  050%=      5-min Rain = 0
KAM3 171542Z 19009KT 10/M00 A297 RMK A01 T00951003  RH  050%=      5-min Rain = 0
KAM3 171543Z 19008KT 10/M00 A297 RMK A01 T00961004  RH  050%=      5-min Rain = 0
KAM3 171544Z 20007KT 10/M01 A297 RMK A01 T00961005  RH  050%=      5-min Rain = 0
KAM3 171545Z 18007KT 10/M01 A297 RMK A01 T00961005  RH  049%=      5-min Rain = 0
KAM3 171546Z 19007KT 10/M00 A297 RMK A01 T00981002  RH  050%=      5-min Rain = 0
KAM3 171547Z 21007KT 10/M00 A297 RMK A01 T01001002  RH  049%=      5-min Rain = 0
KAM3 171548Z 20006KT 10/M00 A297 RMK A01 T01001003  RH  048%=      5-min Rain = 0
KAM3 171549Z 20007KT 10/M00 A297 RMK A01 T01001003  RH  049%=      5-min Rain = 0
KAM3 171550Z 20008KT 10/M00 A297 RMK A01 T01011003  RH  049%=      5-min Rain = 0
KAM3 171551Z 20010KT 10/M00 A297 RMK A01 T01021003  RH  048%=      5-min Rain = 0
KAM3 171552Z 20006KT 10/M00 A297 RMK A01 T01021003  RH  048%=      5-min Rain = 0
KAM3 171553Z 21006KT 10/M00 A297 RMK A01 T01031004  RH  048%=      5-min Rain = 0
KAM3 171554Z 21006KT 10/M01 A297 RMK A01 T01021005  RH  047%=      5-min Rain = 0
KAM3 171555Z 21007KT 10/M00 A297 RMK A01 T01021004  RH  048%=      5-min Rain = 0
KAM3 171556Z 21008KT 10/M00 A297 RMK A01 T01021004  RH  048%=      5-min Rain = 0
KAM3 171557Z 19007KT 10/M00 A297 RMK A01 T01031004  RH  048%=      5-min Rain = 0
KAM3 171558Z 21005KT 10/M00 A297 RMK A01 T01041001  RH  048%=      5-min Rain = 0
KAM3 171559Z 20008KT 11/M00 A297 RMK A01 T01061001  RH  047%=      5-min Rain = 0
KAM3 171600Z 20007KT 11/M00 A297 RMK A01 T01071002  RH  047%=      5-min Rain = 0
KAM3 171601Z 21008KT 11/M00 A297 RMK A01 T01081002  RH  047%=      5-min Rain = 0
KAM3 171602Z 21006KT 11/M00 A297 RMK A01 T01081004  RH  046%=      5-min Rain = 0
KAM3 171603Z 20004KT 11/M00 A297 RMK A01 T01071004  RH  046%=      5-min Rain = 0
KAM3 171604Z 17007KT 11/00 A297 RMK A01 T01080000  RH  047%=      5-min Rain = 0
KAM3 171605Z 18006KT 11/00 A297 RMK A01 T01100001  RH  047%=      5-min Rain = 0
KAM3 171606Z 18006KT 11/00 A297 RMK A01 T01130002  RH  046%=      5-min Rain = 0
KAM3 171607Z 18007KT 11/M00 A297 RMK A01 T01131001  RH  046%=      5-min Rain = 0
KAM3 171608Z 17008KT 11/M00 A297 RMK A01 T01121001  RH  046%=      5-min Rain = 0
KAM3 171609Z 17007KT 11/00 A297 RMK A01 T011000-0  RH  046%=      5-min Rain = 0
KAM3 171610Z 17008KT 11/00 A297 RMK A01 T011000-0  RH  046%=      5-min Rain = 0
KAM3 171611Z 19006KT 11/00 A297 RMK A01 T01110001  RH  047%=      5-min Rain = 0
KAM3 171612Z 20006KT 11/00 A297 RMK A01 T011400-0  RH  045%=      5-min Rain = 0
KAM3 171613Z 21005KT 12/M00 A297 RMK A01 T01151002  RH  045%=      5-min Rain = 0
KAM3 171614Z 19004KT 12/M00 A297 RMK A01 T01151002  RH  044%=      5-min Rain = 0
KAM3 171615Z 20004KT 12/00 A297 RMK A01 T01160000  RH  045%=      5-min Rain = 0
KAM3 171616Z 17006KT 12/00 A297 RMK A01 T01190004  RH  045%=      5-min Rain = 0
KAM3 171617Z 17008KT 12/00 A297 RMK A01 T01200002  RH  044%=      5-min Rain = 0
KAM3 171618Z 18007KT 12/00 A297 RMK A01 T01180000  RH  044%=      5-min Rain = 0
KAM3 171619Z 18006KT 12/00 A297 RMK A01 T01170000  RH  044%=      5-min Rain = 0
KAM3 171620Z 20005KT 12/00 A297 RMK A01 T01170001  RH  045%=      5-min Rain = 0
KAM3 171621Z 17005KT 12/00 A297 RMK A01 T01180003  RH  045%=      5-min Rain = 0
KAM3 171622Z 18004KT 12/01 A297 RMK A01 T01220007  RH  045%=      5-min Rain = 0
KAM3 171623Z 17008KT 13/00 A297 RMK A01 T01250003  RH  043%=      5-min Rain = 0
KAM3 171624Z 17005KT 12/00 A297 RMK A01 T012300-0  RH  043%=      5-min Rain = 0
KAM3 171625Z 17006KT 12/00 A297 RMK A01 T01210000  RH  044%=      5-min Rain = 0
KAM3 171626Z 18006KT 12/00 A297 RMK A01 T01210003  RH  044%=      5-min Rain = 0
KAM3 171627Z 19008KT 12/00 A297 RMK A01 T01240002  RH  043%=      5-min Rain = 0
KAM3 171628Z 20007KT 13/00 A297 RMK A01 T01260003  RH  043%=      5-min Rain = 0
KAM3 171629Z 18007KT 13/M00 A297 RMK A01 T01261002  RH  041%=      5-min Rain = 0
KAM3 171630Z 18006KT 12/M00 A297 RMK A01 T01241001  RH  042%=      5-min Rain = 0
KAM3 171631Z 17006KT 12/M00 A297 RMK A01 T01221004  RH  042%=      5-min Rain = 0
KAM3 171632Z 20006KT 12/M00 A297 RMK A01 T01211002  RH  043%=      5-min Rain = 0
KAM3 171633Z 20007KT 12/00 A297 RMK A01 T01210001  RH  043%=      5-min Rain = 0
KAM3 171634Z 21008KT 12/M00 A297 RMK A01 T01231001  RH  042%=      5-min Rain = 0
KAM3 171635Z 21008KT 12/M00 A297 RMK A01 T01221001  RH  043%=      5-min Rain = 0
KAM3 171636Z 20008KT 12/00 A297 RMK A01 T012200-0  RH  043%=      5-min Rain = 0
KAM3 171637Z 19008KT 12/M00 A297 RMK A01 T01221001  RH  043%=      5-min Rain = 0
KAM3 171638Z 20009KT 12/00 A297 RMK A01 T01240000  RH  043%=      5-min Rain = 0
KAM3 171639Z 19007KT 13/M00 A297 RMK A01 T01251001  RH  042%=      5-min Rain = 0
KAM3 171640Z 21008KT 13/M00 A297 RMK A01 T01251001  RH  042%=      5-min Rain = 0
KAM3 171641Z 20010KT 13/M00 A297 RMK A01 T01261001  RH  042%=      5-min Rain = 0
KAM3 171642Z 19007KT 13/M00 A297 RMK A01 T01261002  RH  041%=      5-min Rain = 0
KAM3 171643Z 19006KT 13/00 A297 RMK A01 T01260001  RH  042%=      5-min Rain = 0
KAM3 171644Z 20007KT 13/00 A297 RMK A01 T01280001  RH  042%=      5-min Rain = 0
KAM3 171645Z 20006KT 13/M00 A297 RMK A01 T01291002  RH  040%=      5-min Rain = 0
KAM3 171646Z 20009KT 13/M00 A297 RMK A01 T01281002  RH  041%=      5-min Rain = 0
KAM3 171647Z 21008KT 13/M00 A297 RMK A01 T01291001  RH  041%=      5-min Rain = 0
KAM3 171648Z 21006KT 13/M00 A297 RMK A01 T01291002  RH  041%=      5-min Rain = 0
KAM3 171649Z 19006KT 13/00 A297 RMK A01 T012800-0  RH  041%=      5-min Rain = 0
KAM3 171650Z 20005KT 13/M00 A297 RMK A01 T01271001  RH  041%=      5-min Rain = 0
KAM3 171651Z 20006KT 13/00 A297 RMK A01 T01270001  RH  042%=      5-min Rain = 0
KAM3 171652Z 20006KT 13/00 A297 RMK A01 T01290002  RH  042%=      5-min Rain = 0
KAM3 171653Z 16009KT 13/00 A297 RMK A01 T01320002  RH  041%=      5-min Rain = 0
KAM3 171654Z 17007KT 13/00 A297 RMK A01 T01340003  RH  041%=      5-min Rain = 0
KAM3 171655Z 17007KT 14/00 A297 RMK A01 T01350001  RH  040%=      5-min Rain = 0
KAM3 171656Z 17007KT 13/00 A297 RMK A01 T01340001  RH  040%=      5-min Rain = 0
KAM3 171657Z 17009KT 13/00 A297 RMK A01 T01330001  RH  040%=      5-min Rain = 0
KAM3 171658Z 17008KT 13/M00 A2969 RMK A01 T01321002  RH  040%=      5-min Rain = 0
KAM3 171659Z 17008KT 13/M00 A2969 RMK A01 T01311004  RH  040%=      5-min Rain = 0
KAM3 171700Z 17007KT 13/M00 A2969 RMK A01 T01301002  RH  040%=      5-min Rain = 0
KAM3 171701Z 17006KT 13/M00 A2969 RMK A01 T01301001  RH  040%=      5-min Rain = 0
KAM3 171702Z 17007KT 13/00 A2969 RMK A01 T01320001  RH  040%=      5-min Rain = 0
KAM3 171703Z 19007KT 13/M00 A2969 RMK A01 T01341001  RH  040%=      5-min Rain = 0
KAM3 171704Z 16010KT 13/00 A2969 RMK A01 T01330001  RH  040%=      5-min Rain = 0
KAM3 171705Z 16009KT 13/M00 A2969 RMK A01 T01341001  RH  040%=      5-min Rain = 0
KAM3 171706Z 17011KT 13/00 A2969 RMK A01 T01330000  RH  040%=      5-min Rain = 0
KAM3 171707Z 17010KT 13/00 A2969 RMK A01 T01340000  RH  040%=      5-min Rain = 0
KAM3 171708Z 18008KT 13/00 A2969 RMK A01 T01340002  RH  040%=      5-min Rain = 0
KAM3 171709Z 20007KT 14/00 A2968 RMK A01 T01350002  RH  040%=      5-min Rain = 0
KAM3 171710Z 17009KT 14/01 A2968 RMK A01 T01370005  RH  040%=      5-min Rain = 0
KAM3 171711Z 17009KT 14/00 A2968 RMK A01 T01380002  RH  039%=      5-min Rain = 0
KAM3 171712Z 17009KT 14/M00 A2968 RMK A01 T01381001  RH  039%=      5-min Rain = 0
KAM3 171713Z 17010KT 14/00 A2968 RMK A01 T01370001  RH  039%=      5-min Rain = 0
KAM3 171714Z 17009KT 14/00 A2968 RMK A01 T01380002  RH  040%=      5-min Rain = 0
KAM3 171715Z 17007KT 14/00 A2968 RMK A01 T01370003  RH  040%=      5-min Rain = 0
KAM3 171716Z 19007KT 14/00 A2968 RMK A01 T01390004  RH  040%=      5-min Rain = 0
KAM3 171717Z 17010KT 14/00 A2968 RMK A01 T01410002  RH  039%=      5-min Rain = 0
KAM3 171718Z 17009KT 14/00 A2968 RMK A01 T014100-0  RH  038%=      5-min Rain = 0
KAM3 171719Z 16008KT 14/00 A2968 RMK A01 T01400003  RH  039%=      5-min Rain = 0
KAM3 171720Z 16009KT 14/01 A2968 RMK A01 T01420005  RH  039%=      5-min Rain = 0
KAM3 171721Z 17009KT 14/00 A2968 RMK A01 T01420003  RH  039%=      5-min Rain = 0
KAM3 171722Z 17010KT 14/00 A2968 RMK A01 T01410002  RH  039%=      5-min Rain = 0
KAM3 171723Z 18010KT 14/00 A2968 RMK A01 T01410001  RH  038%=      5-min Rain = 0
KAM3 171724Z 19010KT 14/00 A2968 RMK A01 T01420002  RH  039%=      5-min Rain = 0
KAM3 171725Z 18009KT 14/00 A2968 RMK A01 T01430002  RH  038%=      5-min Rain = 0
KAM3 171726Z 18010KT 14/00 A2968 RMK A01 T01430001  RH  038%=      5-min Rain = 0
KAM3 171727Z 19011KT 14/00 A2969 RMK A01 T01440002  RH  038%=      5-min Rain = 0
KAM3 171728Z 20010KT 15/00 A2969 RMK A01 T01450003  RH  038%=      5-min Rain = 0
KAM3 171729Z 20010KT 15/01 A2969 RMK A01 T01450005  RH  039%=      5-min Rain = 0
KAM3 171730Z 20011KT 14/01 A2968 RMK A01 T01440006  RH  039%=      5-min Rain = 0
KAM3 171731Z 15009KT 15/01 A2969 RMK A01 T01450008  RH  039%=      5-min Rain = 0
KAM3 171732Z 16008KT 15/01 A2969 RMK A01 T01470007  RH  038%=      5-min Rain = 0
KAM3 171733Z 15008KT 15/01 A2968 RMK A01 T01480006  RH  038%=      5-min Rain = 0
KAM3 171734Z 15010KT 15/01 A2968 RMK A01 T01460005  RH  038%=      5-min Rain = 0
KAM3 171735Z 16009KT 15/01 A2968 RMK A01 T01460006  RH  038%=      5-min Rain = 0
KAM3 171736Z 16007KT 15/01 A2968 RMK A01 T01460007  RH  039%=      5-min Rain = 0
KAM3 171737Z 15009KT 15/01 A2968 RMK A01 T01480008  RH  038%=      5-min Rain = 0
KAM3 171738Z 16007KT 15/01 A2968 RMK A01 T01500006  RH  037%=      5-min Rain = 0
KAM3 171739Z 18008KT 15/01 A2968 RMK A01 T01510007  RH  038%=      5-min Rain = 0
KAM3 171740Z 18009KT 15/01 A2968 RMK A01 T01510006  RH  037%=      5-min Rain = 0
KAM3 171741Z 18007KT 15/01 A2968 RMK A01 T01490005  RH  038%=      5-min Rain = 0
KAM3 171742Z 15007KT 15/01 A2968 RMK A01 T01470008  RH  039%=      5-min Rain = 0
KAM3 171743Z 15009KT 15/01 A2968 RMK A01 T01500010  RH  039%=      5-min Rain = 0
KAM3 171744Z 17012KT 15/01 A2968 RMK A01 T01510009  RH  038%=      5-min Rain = 0
KAM3 171745Z 17009KT 15/01 A2968 RMK A01 T01510007  RH  038%=      5-min Rain = 0
KAM3 171746Z 15007KT 15/01 A2968 RMK A01 T01500008  RH  038%=      5-min Rain = 0
KAM3 171747Z 15008KT 15/01 A2968 RMK A01 T01510007  RH  037%=      5-min Rain = 0
KAM3 171748Z 15011KT 15/01 A2968 RMK A01 T01500005  RH  037%=      5-min Rain = 0
KAM3 171749Z 17010KT 15/01 A2968 RMK A01 T01500005  RH  037%=      5-min Rain = 0
KAM3 171750Z 17010KT 15/00 A2968 RMK A01 T01510004  RH  037%=      5-min Rain = 0
KAM3 171751Z 17011KT 15/00 A2968 RMK A01 T01500002  RH  036%=      5-min Rain = 0
KAM3 171752Z 17008KT 15/00 A2968 RMK A01 T01500003  RH  037%=      5-min Rain = 0
KAM3 171753Z 18009KT 15/00 A2968 RMK A01 T01500004  RH  037%=      5-min Rain = 0
KAM3 171754Z 17009KT 15/00 A2968 RMK A01 T01510004  RH  037%=      5-min Rain = 0
KAM3 171755Z 17009KT 15/01 A2968 RMK A01 T01520007  RH  037%=      5-min Rain = 0
KAM3 171756Z 19008KT 15/00 A2968 RMK A01 T01520003  RH  036%=      5-min Rain = 0
KAM3 171757Z 17007KT 15/00 A2968 RMK A01 T01520004  RH  036%=      5-min Rain = 0
KAM3 171758Z 17008KT 15/01 A2968 RMK A01 T01530006  RH  037%=      5-min Rain = 0
KAM3 171759Z 17008KT 16/01 A2968 RMK A01 T01570009  RH  037%=      5-min Rain = 0
KAM3 171800Z 18007KT 16/01 A2968 RMK A01 T01590006  RH  035%=      5-min Rain = 0
KAM3 171801Z 15009KT 16/01 A2968 RMK A01 T01600005  RH  035%=      5-min Rain = 0
KAM3 171802Z 15009KT 16/00 A2968 RMK A01 T01610001  RH  034%=      5-min Rain = 0
KAM3 171803Z 14007KT 16/00 A2968 RMK A01 T01600002  RH  034%=      5-min Rain = 0
KAM3 171804Z 14008KT 16/00 A2968 RMK A01 T01590004  RH  035%=      5-min Rain = 0
KAM3 171805Z 16008KT 16/00 A2968 RMK A01 T01580004  RH  035%=      5-min Rain = 0
KAM3 171806Z 18008KT 16/00 A2968 RMK A01 T01590004  RH  035%=      5-min Rain = 0
KAM3 171807Z 19011KT 16/00 A2968 RMK A01 T01600001  RH  034%=      5-min Rain = 0
KAM3 171808Z 18011KT 16/00 A2968 RMK A01 T01620001  RH  033%=      5-min Rain = 0
KAM3 171809Z 18008KT 16/00 A2968 RMK A01 T01610001  RH  034%=      5-min Rain = 0
KAM3 171810Z 18006KT 16/00 A2968 RMK A01 T01610003  RH  034%=      5-min Rain = 0
KAM3 171811Z 18008KT 16/01 A2968 RMK A01 T01630006  RH  034%=      5-min Rain = 0
KAM3 171812Z 17007KT 17/01 A2968 RMK A01 T01650006  RH  034%=      5-min Rain = 0
KAM3 171813Z 15006KT 16/00 A2968 RMK A01 T01640004  RH  034%=      5-min Rain = 0
KAM3 171814Z 16006KT 16/00 A2968 RMK A01 T01630004  RH  034%=      5-min Rain = 0
KAM3 171815Z 16006KT 16/00 A2968 RMK A01 T01630003  RH  034%=      5-min Rain = 0
KAM3 171816Z 17003KT 16/01 A2968 RMK A01 T01640005  RH  034%=      5-min Rain = 0
KAM3 171817Z 17007KT 17/01 A2968 RMK A01 T01680007  RH  034%=      5-min Rain = 0
KAM3 171818Z 18007KT 17/01 A2968 RMK A01 T01700005  RH  033%=      5-min Rain = 0
KAM3 171819Z 17006KT 17/00 A2968 RMK A01 T01700004  RH  032%=      5-min Rain = 0
KAM3 171820Z 17009KT 17/01 A2968 RMK A01 T01720005  RH  032%=      5-min Rain = 0
KAM3 171821Z 17009KT 17/00 A2968 RMK A01 T01710001  RH  032%=      5-min Rain = 0
KAM3 171822Z 18008KT 17/00 A2968 RMK A01 T01690004  RH  033%=      5-min Rain = 0
KAM3 171823Z 17007KT 17/00 A2968 RMK A01 T01710004  RH  032%=      5-min Rain = 0
KAM3 171824Z 18008KT 17/00 A2968 RMK A01 T01710001  RH  032%=      5-min Rain = 0
KAM3 171825Z 18008KT 17/00 A2968 RMK A01 T01700001  RH  032%=      5-min Rain = 0
KAM3 171826Z 19008KT 17/00 A2968 RMK A01 T01710001  RH  032%=      5-min Rain = 0
KAM3 171827Z 21008KT 17/00 A2968 RMK A01 T01710002  RH  032%=      5-min Rain = 0
KAM3 171828Z 19008KT 17/00 A2968 RMK A01 T01730002  RH  031%=      5-min Rain = 0
KAM3 171829Z 19010KT 17/00 A2967 RMK A01 T01720002  RH  032%=      5-min Rain = 0
KAM3 171830Z 18006KT 17/00 A2968 RMK A01 T01700001  RH  032%=      5-min Rain = 0
KAM3 171831Z 21007KT 17/00 A2968 RMK A01 T01680003  RH  033%=      5-min Rain = 0
KAM3 171832Z 21008KT 17/00 A2967 RMK A01 T01690000  RH  032%=      5-min Rain = 0
KAM3 171833Z 21007KT 17/00 A2967 RMK A01 T01690001  RH  032%=      5-min Rain = 0
KAM3 171834Z 20010KT 17/00 A2968 RMK A01 T01710002  RH  032%=      5-min Rain = 0
KAM3 171835Z 19009KT 17/00 A2968 RMK A01 T01730003  RH  032%=      5-min Rain = 0
KAM3 171836Z 20008KT 17/00 A2968 RMK A01 T01730003  RH  032%=      5-min Rain = 0
KAM3 171837Z 19010KT 17/01 A2967 RMK A01 T01740005  RH  032%=      5-min Rain = 0
KAM3 171838Z 19010KT 18/01 A2967 RMK A01 T01750005  RH  032%=      5-min Rain = 0
KAM3 171839Z 19009KT 18/01 A2967 RMK A01 T01750005  RH  032%=      5-min Rain = 0
KAM3 171840Z 20009KT 18/01 A2967 RMK A01 T01750006  RH  032%=      5-min Rain = 0
KAM3 171841Z 21006KT 18/01 A2967 RMK A01 T01760005  RH  031%=      5-min Rain = 0
KAM3 171842Z 22006KT 18/00 A2967 RMK A01 T01750003  RH  031%=      5-min Rain = 0
KAM3 171843Z 18004KT 17/01 A2967 RMK A01 T01730005  RH  032%=      5-min Rain = 0
KAM3 171844Z 17006KT 18/01 A2967 RMK A01 T01750005  RH  032%=      5-min Rain = 0
KAM3 171845Z 15006G11KT 18/01 A2967 RMK A01 T01770005  RH  031%=      5-min Rain = 0
KAM3 171846Z 17010KT 18/00 A2966 RMK A01 T01780004  RH  031%=      5-min Rain = 0
KAM3 171847Z 17009KT 18/00 A2966 RMK A01 T01800004  RH  030%=      5-min Rain = 0
KAM3 171848Z 18008KT 18/00 A2966 RMK A01 T01790002  RH  030%=      5-min Rain = 0
KAM3 171849Z 20011KT 18/00 A2966 RMK A01 T01780003  RH  031%=      5-min Rain = 0
KAM3 171850Z 19011KT 18/00 A2966 RMK A01 T01790003  RH  030%=      5-min Rain = 0
KAM3 171851Z 21007KT 18/00 A2966 RMK A01 T01770002  RH  031%=      5-min Rain = 0
KAM3 171852Z 21007KT 18/00 A2966 RMK A01 T01770004  RH  031%=      5-min Rain = 0
KAM3 171853Z 20006KT 18/01 A2966 RMK A01 T01790005  RH  031%=      5-min Rain = 0
KAM3 171854Z 19005KT 18/01 A2966 RMK A01 T01810005  RH  030%=      5-min Rain = 0
KAM3 171855Z 18006KT 18/01 A2966 RMK A01 T01820006  RH  031%=      5-min Rain = 0
KAM3 171856Z 18010KT 18/00 A2966 RMK A01 T01830004  RH  030%=      5-min Rain = 0
KAM3 171857Z 18011KT 18/00 A2965 RMK A01 T01830004  RH  030%=      5-min Rain = 0
KAM3 171858Z 19009KT 18/00 A2965 RMK A01 T01830004  RH  030%=      5-min Rain = 0
KAM3 171859Z 19007KT 18/00 A2965 RMK A01 T01800001  RH  030%=      5-min Rain = 0
KAM3 171900Z 20007KT 18/00 A2965 RMK A01 T01780002  RH  030%=      5-min Rain = 0
KAM3 171901Z 18005KT 18/00 A2965 RMK A01 T01760002  RH  031%=      5-min Rain = 0
KAM3 171902Z 16006KT 18/01 A2965 RMK A01 T01770006  RH  031%=      5-min Rain = 0
KAM3 171903Z 15008KT 18/00 A2965 RMK A01 T01800004  RH  030%=      5-min Rain = 0
KAM3 171904Z 16008KT 18/00 A2965 RMK A01 T01810004  RH  030%=      5-min Rain = 0
KAM3 171905Z 17006KT 18/01 A2965 RMK A01 T01830009  RH  031%=      5-min Rain = 0
KAM3 171906Z 18009KT 19/01 A2965 RMK A01 T01870008  RH  030%=      5-min Rain = 0
KAM3 171907Z 19009KT 19/01 A2965 RMK A01 T01880006  RH  029%=      5-min Rain = 0
KAM3 171908Z 19010KT 19/01 A2965 RMK A01 T01870005  RH  029%=      5-min Rain = 0
KAM3 171909Z 18009KT 19/00 A2965 RMK A01 T01860004  RH  029%=      5-min Rain = 0
KAM3 171910Z 18007KT 18/00 A2965 RMK A01 T01840004  RH  030%=      5-min Rain = 0
KAM3 171911Z 20005KT 18/01 A2965 RMK A01 T01830006  RH  030%=      5-min Rain = 0
KAM3 171912Z 18006KT 18/01 A2964 RMK A01 T01840007  RH  030%=      5-min Rain = 0
KAM3 171913Z 16009KT 19/01 A2964 RMK A01 T01860007  RH  030%=      5-min Rain = 0
KAM3 171914Z 16010KT 19/01 A2964 RMK A01 T01890008  RH  030%=      5-min Rain = 0
KAM3 171915Z 16012KT 19/01 A2964 RMK A01 T01900005  RH  029%=      5-min Rain = 0
KAM3 171916Z 17011KT 19/01 A2965 RMK A01 T01880005  RH  029%=      5-min Rain = 0
KAM3 171917Z 18009KT 19/00 A2965 RMK A01 T01860002  RH  029%=      5-min Rain = 0
KAM3 171918Z 19008KT 18/00 A2965 RMK A01 T01840003  RH  029%=      5-min Rain = 0
KAM3 171919Z 18012G17KT 18/01 A2965 RMK A01 T01830006  RH  030%=      5-min Rain = 0
KAM3 171920Z 18010KT 19/01 A2965 RMK A01 T01850007  RH  030%=      5-min Rain = 0
KAM3 171921Z 17010KT 19/01 A2965 RMK A01 T01890005  RH  029%=      5-min Rain = 0
KAM3 171922Z 17009KT 19/00 A2965 RMK A01 T01890003  RH  029%=      5-min Rain = 0
KAM3 171923Z 17009KT 19/00 A2964 RMK A01 T01870002  RH  029%=      5-min Rain = 0
KAM3 171924Z 17007KT 19/00 A2964 RMK A01 T01850002  RH  029%=      5-min Rain = 0
KAM3 171925Z 18009KT 19/00 A2964 RMK A01 T01850004  RH  029%=      5-min Rain = 0
KAM3 171926Z 16012KT 19/00 A2964 RMK A01 T01870001  RH  029%=      5-min Rain = 0
KAM3 171927Z 17011KT 19/01 A2964 RMK A01 T01890005  RH  029%=      5-min Rain = 0
KAM3 171928Z 16010KT 19/M00 A2964 RMK A01 T01911001  RH  028%=      5-min Rain = 0
KAM3 171929Z 17008KT 19/M00 A2964 RMK A01 T01891001  RH  028%=      5-min Rain = 0
KAM3 171930Z 18009KT 19/00 A2964 RMK A01 T01890002  RH  029%=      5-min Rain = 0
KAM3 171931Z 17009G14KT 19/00 A2964 RMK A01 T01890001  RH  028%=      5-min Rain = 0
KAM3 171932Z 15011KT 19/00 A2964 RMK A01 T019200-0  RH  027%=      5-min Rain = 0
KAM3 171933Z 15012KT 19/M00 A2964 RMK A01 T01921003  RH  027%=      5-min Rain = 0
KAM3 171934Z 17013KT 19/00 A2964 RMK A01 T01920002  RH  028%=      5-min Rain = 0
KAM3 171935Z 16013KT 19/00 A2964 RMK A01 T01930002  RH  028%=      5-min Rain = 0
KAM3 171936Z 17011KT 19/00 A2964 RMK A01 T01930002  RH  028%=      5-min Rain = 0
KAM3 171937Z 16014KT 19/00 A2964 RMK A01 T01920002  RH  028%=      5-min Rain = 0
KAM3 171938Z 17013KT 19/M00 A2964 RMK A01 T01921003  RH  027%=      5-min Rain = 0
KAM3 171939Z 17012KT 19/00 A2964 RMK A01 T01900000  RH  028%=      5-min Rain = 0
KAM3 171940Z 17011KT 19/01 A2964 RMK A01 T01900005  RH  029%=      5-min Rain = 0
KAM3 171941Z 17013KT 19/00 A2964 RMK A01 T01920003  RH  028%=      5-min Rain = 0
KAM3 171942Z 16010KT 19/00 A2964 RMK A01 T01920001  RH  028%=      5-min Rain = 0
KAM3 171943Z 17010KT 19/00 A2964 RMK A01 T01910002  RH  028%=      5-min Rain = 0
KAM3 171944Z 16012KT 19/00 A2964 RMK A01 T01910002  RH  028%=      5-min Rain = 0
KAM3 171945Z 19010KT 19/00 A2964 RMK A01 T01910001  RH  028%=      5-min Rain = 0
KAM3 171946Z 21008KT 19/00 A2964 RMK A01 T01900000  RH  028%=      5-min Rain = 0
KAM3 171947Z 19011KT 19/00 A2963 RMK A01 T01890000  RH  028%=      5-min Rain = 0
KAM3 171948Z 19013KT 19/00 A2963 RMK A01 T01910001  RH  028%=      5-min Rain = 0
KAM3 171949Z 19012KT 19/00 A2964 RMK A01 T01910001  RH  028%=      5-min Rain = 0
KAM3 171950Z 18010KT 19/00 A2964 RMK A01 T019000-0  RH  028%=      5-min Rain = 0
KAM3 171951Z 17011KT 19/00 A2964 RMK A01 T019100-0  RH  028%=      5-min Rain = 0
KAM3 171952Z 17012KT 19/M00 A2963 RMK A01 T01911001  RH  027%=      5-min Rain = 0
KAM3 171953Z 17011KT 19/00 A2963 RMK A01 T01910001  RH  028%=      5-min Rain = 0
KAM3 171954Z 17011KT 19/00 A2963 RMK A01 T01920001  RH  028%=      5-min Rain = 0
KAM3 171955Z 14007KT 19/M00 A2963 RMK A01 T01921001  RH  027%=      5-min Rain = 0
KAM3 171956Z 14008KT 19/00 A2963 RMK A01 T01920000  RH  028%=      5-min Rain = 0
KAM3 171957Z 16007KT 19/M00 A2963 RMK A01 T01921002  RH  027%=      5-min Rain = 0
KAM3 171958Z 18004KT 19/M00 A2963 RMK A01 T01921004  RH  027%=      5-min Rain = 0
KAM3 171959Z 19011KT 19/M00 A2963 RMK A01 T01911003  RH  027%=      5-min Rain = 0
KAM3 172000Z 20010KT 19/M01 A2963 RMK A01 T01921006  RH  026%=      5-min Rain = 0
KAM3 172001Z 19012KT 19/M00 A2963 RMK A01 T01921004  RH  027%=      5-min Rain = 0
KAM3 172002Z 21009KT 19/M00 A2963 RMK A01 T01921004  RH  027%=      5-min Rain = 0
KAM3 172003Z 18009KT 19/M00 A2963 RMK A01 T01911003  RH  027%=      5-min Rain = 0
KAM3 172004Z 19009KT 19/M00 A2963 RMK A01 T01921003  RH  027%=      5-min Rain = 0
KAM3 172005Z 20009KT 19/00 A2963 RMK A01 T01930000  RH  027%=      5-min Rain = 0
KAM3 172006Z 20013KT 19/M00 A2963 RMK A01 T01941002  RH  027%=      5-min Rain = 0
KAM3 172007Z 18013KT 20/00 A2963 RMK A01 T01960001  RH  027%=      5-min Rain = 0
KAM3 172008Z 18011KT 20/00 A2963 RMK A01 T01980001  RH  027%=      5-min Rain = 0
KAM3 172009Z 16012KT 20/00 A2963 RMK A01 T02000000  RH  026%=      5-min Rain = 0
KAM3 172010Z 15009KT 20/00 A2963 RMK A01 T01990000  RH  026%=      5-min Rain = 0
KAM3 172011Z 16006KT 20/00 A2963 RMK A01 T01980001  RH  027%=      5-min Rain = 0
KAM3 172012Z 17007KT 20/00 A2963 RMK A01 T01990001  RH  027%=      5-min Rain = 0
KAM3 172013Z 17010G17KT 20/00 A2963 RMK A01 T01990001  RH  027%=      5-min Rain = 0
KAM3 172014Z 17011KT 20/00 A2963 RMK A01 T01990001  RH  026%=      5-min Rain = 0
KAM3 172015Z 16009KT 20/00 A2963 RMK A01 T01990003  RH  027%=      5-min Rain = 0
KAM3 172016Z 15012KT 20/M00 A2963 RMK A01 T02021001  RH  026%=      5-min Rain = 0
KAM3 172017Z 16011KT 20/M00 A2963 RMK A01 T02001003  RH  026%=      5-min Rain = 0
KAM3 172018Z 16011KT 20/M00 A2963 RMK A01 T01971002  RH  026%=      5-min Rain = 0
KAM3 172019Z 16009KT 20/M00 A2963 RMK A01 T01961001  RH  027%=      5-min Rain = 0
KAM3 172020Z 16009KT 20/00 A2963 RMK A01 T01970000  RH  027%=      5-min Rain = 0
KAM3 172021Z 16007KT 20/M00 A2963 RMK A01 T01971003  RH  026%=      5-min Rain = 0
KAM3 172022Z 17004KT 20/M00 A2963 RMK A01 T01951001  RH  027%=      5-min Rain = 0
KAM3 172023Z 17004KT 20/00 A2963 RMK A01 T01960001  RH  027%=      5-min Rain = 0
KAM3 172024Z 17010KT 20/00 A2963 RMK A01 T01990002  RH  027%=      5-min Rain = 0
KAM3 172025Z 17012KT 20/00 A2962 RMK A01 T02010001  RH  026%=      5-min Rain = 0
KAM3 172026Z 16011KT 20/M00 A2963 RMK A01 T02001001  RH  026%=      5-min Rain = 0
KAM3 172027Z 17012KT 20/00 A2963 RMK A01 T01980001  RH  027%=      5-min Rain = 0
KAM3 172028Z 16009KT 20/00 A2963 RMK A01 T019800-0  RH  026%=      5-min Rain = 0
KAM3 172029Z 15009KT 20/00 A2963 RMK A01 T01970001  RH  027%=      5-min Rain = 0
KAM3 172030Z 16011KT 20/00 A2963 RMK A01 T01990001  RH  027%=      5-min Rain = 0
KAM3 172031Z 17010KT 20/M00 A2963 RMK A01 T01981001  RH  026%=      5-min Rain = 0
KAM3 172032Z 17008KT 20/00 A2963 RMK A01 T01970002  RH  027%=      5-min Rain = 0
KAM3 172033Z 15005KT 20/00 A2963 RMK A01 T019700-0  RH  027%=      5-min Rain = 0
KAM3 172034Z 15005KT 20/M00 A2963 RMK A01 T01961001  RH  026%=      5-min Rain = 0
KAM3 172035Z 20009KT 20/00 A2963 RMK A01 T01960000  RH  027%=      5-min Rain = 0
KAM3 172036Z 17011KT 20/00 A2963 RMK A01 T01960001  RH  027%=      5-min Rain = 0
KAM3 172037Z 17011KT 20/M00 A2963 RMK A01 T01981003  RH  026%=      5-min Rain = 0
KAM3 172038Z 17009KT 20/M00 A2963 RMK A01 T01981004  RH  026%=      5-min Rain = 0
KAM3 172039Z 16006KT 20/M00 A2963 RMK A01 T01971003  RH  026%=      5-min Rain = 0
KAM3 172040Z 14006KT 20/M00 A2963 RMK A01 T01961004  RH  026%=      5-min Rain = 0
KAM3 172041Z 16009KT 20/M00 A2963 RMK A01 T01961001  RH  027%=      5-min Rain = 0
KAM3 172042Z 17010KT 20/M00 A2963 RMK A01 T01981002  RH  026%=      5-min Rain = 0
KAM3 172043Z 15008KT 20/00 A2963 RMK A01 T020000-0  RH  026%=      5-min Rain = 0
KAM3 172044Z 14007KT 20/M00 A2963 RMK A01 T02021002  RH  025%=      5-min Rain = 0
KAM3 172045Z 17006KT 20/M00 A2963 RMK A01 T02001001  RH  026%=      5-min Rain = 0
KAM3 172046Z 18009KT 20/00 A2963 RMK A01 T02000002  RH  026%=      5-min Rain = 0
KAM3 172047Z 18011KT 20/00 A2963 RMK A01 T02010000  RH  026%=      5-min Rain = 0
KAM3 172048Z 20009KT 20/M00 A2963 RMK A01 T01991001  RH  026%=      5-min Rain = 0
KAM3 172049Z 20006KT 20/00 A2963 RMK A01 T01970001  RH  027%=      5-min Rain = 0
KAM3 172050Z 19011KT 20/M00 A2963 RMK A01 T01981001  RH  026%=      5-min Rain = 0
KAM3 172051Z 20011KT 20/M00 A2963 RMK A01 T01981002  RH  026%=      5-min Rain = 0
KAM3 172052Z 18011KT 20/M00 A2962 RMK A01 T01981002  RH  026%=      5-min Rain = 0
KAM3 172053Z 19012KT 20/00 A2963 RMK A01 T01990000  RH  026%=      5-min Rain = 0
KAM3 172054Z 18011KT 20/M00 A2963 RMK A01 T02001003  RH  026%=      5-min Rain = 0
KAM3 172055Z 17011KT 20/M01 A2963 RMK A01 T01991005  RH  025%=      5-min Rain = 0
KAM3 172056Z 17010KT 20/M01 A2963 RMK A01 T01971005  RH  026%=      5-min Rain = 0
KAM3 172057Z 18012KT 20/M00 A2963 RMK A01 T01961004  RH  026%=      5-min Rain = 0
KAM3 172058Z 18012KT 20/M01 A2963 RMK A01 T01961005  RH  026%=      5-min Rain = 0
KAM3 172059Z 18009KT 20/M00 A2963 RMK A01 T01961003  RH  026%=      5-min Rain = 0
KAM3 172100Z 20007KT 20/00 A2963 RMK A01 T01960000  RH  027%=      5-min Rain = 0
KAM3 172101Z 17010KT 20/00 A2963 RMK A01 T01980001  RH  027%=      5-min Rain = 0
KAM3 172102Z 18011KT 20/00 A2963 RMK A01 T01990001  RH  027%=      5-min Rain = 0
KAM3 172103Z 18008KT 20/M00 A2963 RMK A01 T01971001  RH  027%=      5-min Rain = 0
KAM3 172104Z 19005KT 19/M00 A2963 RMK A01 T01941001  RH  027%=      5-min Rain = 0
KAM3 172105Z 15007KT 19/00 A2963 RMK A01 T01930002  RH  028%=      5-min Rain = 0
KAM3 172106Z 13005KT 19/00 A2963 RMK A01 T01940001  RH  027%=      5-min Rain = 0
KAM3 172107Z 16005KT 19/00 A2963 RMK A01 T01940002  RH  028%=      5-min Rain = 0
KAM3 172108Z 16005KT 19/00 A2963 RMK A01 T01940002  RH  027%=      5-min Rain = 0
KAM3 172109Z 18006KT 20/00 A2963 RMK A01 T01950003  RH  028%=      5-min Rain = 0
KAM3 172110Z 18007KT 20/00 A2963 RMK A01 T01970003  RH  027%=      5-min Rain = 0
KAM3 172111Z 18006KT 20/00 A2963 RMK A01 T01970001  RH  027%=      5-min Rain = 0
KAM3 172112Z 19006G11KT 20/00 A2963 RMK A01 T01970001  RH  027%=      5-min Rain = 0
KAM3 172113Z 19011KT 20/00 A2963 RMK A01 T01980000  RH  027%=      5-min Rain = 0
KAM3 172114Z 19010KT 20/00 A2963 RMK A01 T019800-0  RH  026%=      5-min Rain = 0
KAM3 172115Z 19006KT 20/00 A2963 RMK A01 T01980000  RH  027%=      5-min Rain = 0
KAM3 172116Z 19007KT 20/M00 A2963 RMK A01 T01971001  RH  027%=      5-min Rain = 0
KAM3 172117Z 18006KT 20/M00 A2963 RMK A01 T01951001  RH  027%=      5-min Rain = 0
KAM3 172118Z 16008KT 20/00 A2963 RMK A01 T019500-0  RH  027%=      5-min Rain = 0
KAM3 172119Z 17010KT 20/M00 A2963 RMK A01 T01951001  RH  027%=      5-min Rain = 0
KAM3 172120Z 19008KT 20/M00 A2963 RMK A01 T01951002  RH  027%=      5-min Rain = 0
KAM3 172121Z 17007G12KT 20/M00 A2963 RMK A01 T01951002  RH  027%=      5-min Rain = 0
KAM3 172122Z 17011KT 20/M00 A2963 RMK A01 T01971002  RH  026%=      5-min Rain = 0
KAM3 172123Z 15010KT 20/M00 A2963 RMK A01 T01981004  RH  026%=      5-min Rain = 0
KAM3 172124Z 16011KT 20/M00 A2963 RMK A01 T01981002  RH  026%=      5-min Rain = 0
KAM3 172125Z 15008KT 20/M00 A2963 RMK A01 T01971003  RH  026%=      5-min Rain = 0
KAM3 172126Z 15010KT 20/M00 A2963 RMK A01 T01971001  RH  026%=      5-min Rain = 0
KAM3 172127Z 15010KT 20/M00 A2963 RMK A01 T01971001  RH  026%=      5-min Rain = 0
KAM3 172128Z 14006KT 20/M00 A2963 RMK A01 T01971001  RH  026%=      5-min Rain = 0
KAM3 172129Z 15003KT 20/M00 A2963 RMK A01 T01971001  RH  026%=      5-min Rain = 0
KAM3 172130Z 16003KT 20/M00 A2963 RMK A01 T01971003  RH  026%=      5-min Rain = 0
KAM3 172131Z 14006KT 20/M00 A2963 RMK A01 T01971002  RH  026%=      5-min Rain = 0
KAM3 172132Z 15008KT 20/M01 A2963 RMK A01 T01971006  RH  026%=      5-min Rain = 0
KAM3 172133Z 15010KT 20/M01 A2963 RMK A01 T01971005  RH  026%=      5-min Rain = 0
KAM3 172134Z 16009KT 20/M01 A2963 RMK A01 T01971006  RH  025%=      5-min Rain = 0
KAM3 172135Z 16008KT 20/M01 A2963 RMK A01 T01981008  RH  025%=      5-min Rain = 0
KAM3 172136Z 14008KT 20/M01 A2963 RMK A01 T01981006  RH  025%=      5-min Rain = 0
KAM3 172137Z 14008KT 20/M01 A2963 RMK A01 T01971008  RH  025%=      5-min Rain = 0
KAM3 172138Z 15009KT 20/M01 A2963 RMK A01 T01971005  RH  026%=      5-min Rain = 0
KAM3 172139Z 15008KT 20/M01 A2963 RMK A01 T01971007  RH  025%=      5-min Rain = 0
KAM3 172140Z 14006KT 20/M01 A2963 RMK A01 T01981007  RH  025%=      5-min Rain = 0
KAM3 172141Z 14006KT 20/M01 A2963 RMK A01 T01981006  RH  025%=      5-min Rain = 0
KAM3 172142Z 16008KT 20/M01 A2963 RMK A01 T02001006  RH  025%=      5-min Rain = 0
KAM3 172143Z 14007KT 20/M01 A2963 RMK A01 T02021010  RH  024%=      5-min Rain = 0
KAM3 172144Z 16007KT 20/M01 A2963 RMK A01 T02001010  RH  024%=      5-min Rain = 0
KAM3 172145Z 19008KT 20/M01 A2963 RMK A01 T02001007  RH  025%=      5-min Rain = 0
KAM3 172146Z 19008KT 20/M01 A2963 RMK A01 T02011009  RH  024%=      5-min Rain = 0
KAM3 172147Z 19006KT 20/M01 A2963 RMK A01 T01991010  RH  024%=      5-min Rain = 0
KAM3 172148Z 19005KT 20/M01 A2963 RMK A01 T01981010  RH  025%=      5-min Rain = 0
KAM3 172149Z 17007KT 20/M01 A2963 RMK A01 T01981008  RH  025%=      5-min Rain = 0
KAM3 172150Z 18008KT 20/M01 A2963 RMK A01 T01981009  RH  025%=      5-min Rain = 0
KAM3 172151Z 18006KT 20/M01 A2963 RMK A01 T01981006  RH  025%=      5-min Rain = 0
KAM3 172152Z 18008KT 20/M01 A2963 RMK A01 T01981007  RH  025%=      5-min Rain = 0
KAM3 172153Z 18005KT 20/M01 A2963 RMK A01 T01991008  RH  025%=      5-min Rain = 0
KAM3 172154Z 19004KT 20/M01 A2963 RMK A01 T01971008  RH  025%=      5-min Rain = 0
KAM3 172155Z 17005KT 20/M01 A2963 RMK A01 T01961008  RH  025%=      5-min Rain = 0
KAM3 172156Z 13006KT 20/M01 A2963 RMK A01 T01971006  RH  025%=      5-min Rain = 0
KAM3 172157Z 12008KT 20/M01 A2963 RMK A01 T01991007  RH  025%=      5-min Rain = 0
KAM3 172158Z 11007KT 20/M01 A2963 RMK A01 T01991008  RH  025%=      5-min Rain = 0
KAM3 172159Z 12006KT 20/M01 A2963 RMK A01 T01981010  RH  025%=      5-min Rain = 0
KAM3 172200Z 11004KT 20/M01 A2963 RMK A01 T01971011  RH  025%=      5-min Rain = 0
KAM3 172201Z 15003KT 20/M01 A2963 RMK A01 T01951010  RH  025%=      5-min Rain = 0
KAM3 172202Z 13006KT 20/M01 A2963 RMK A01 T01961007  RH  025%=      5-min Rain = 0
KAM3 172203Z 14007KT 20/M01 A2963 RMK A01 T01981008  RH  025%=      5-min Rain = 0
KAM3 172204Z 17006KT 20/M01 A2963 RMK A01 T01991007  RH  025%=      5-min Rain = 0
KAM3 172205Z 16006KT 20/M01 A2963 RMK A01 T02001009  RH  024%=      5-min Rain = 0
KAM3 172206Z 15006KT 20/M01 A2963 RMK A01 T01991012  RH  024%=      5-min Rain = 0
KAM3 172207Z 15005KT 20/M02 A2963 RMK A01 T01991017  RH  023%=      5-min Rain = 0
KAM3 172208Z 15005KT 20/M02 A2963 RMK A01 T01981016  RH  024%=      5-min Rain = 0
KAM3 172209Z 15006KT 20/M01 A2963 RMK A01 T01981013  RH  024%=      5-min Rain = 0
KAM3 172210Z 15005KT 20/M01 A2963 RMK A01 T01981008  RH  025%=      5-min Rain = 0
KAM3 172211Z 14005KT 20/M01 A2963 RMK A01 T01981008  RH  025%=      5-min Rain = 0
KAM3 172212Z 14003KT 20/M01 A2963 RMK A01 T01981009  RH  025%=      5-min Rain = 0
KAM3 172213Z 10003KT 20/M01 A2963 RMK A01 T01981008  RH  025%=      5-min Rain = 0
KAM3 172214Z 10003KT 20/M01 A2963 RMK A01 T01971008  RH  025%=      5-min Rain = 0
KAM3 172215Z 08003KT 20/M01 A2963 RMK A01 T01961008  RH  025%=      5-min Rain = 0
KAM3 172216Z 10003KT 20/M01 A2963 RMK A01 T01961006  RH  026%=      5-min Rain = 0
KAM3 172217Z 14004KT 20/M01 A2963 RMK A01 T01971005  RH  026%=      5-min Rain = 0
KAM3 172218Z 16005KT 20/M00 A2963 RMK A01 T01991002  RH  026%=      5-min Rain = 0
KAM3 172219Z 16008KT 20/M00 A2963 RMK A01 T02021002  RH  025%=      5-min Rain = 0
KAM3 172220Z 15007KT 20/M01 A2963 RMK A01 T02021005  RH  025%=      5-min Rain = 0
KAM3 172221Z 15005KT 20/M01 A2963 RMK A01 T02001007  RH  025%=      5-min Rain = 0
KAM3 172222Z 14007KT 20/M01 A2963 RMK A01 T01991006  RH  025%=      5-min Rain = 0
KAM3 172223Z 14008KT 20/M01 A2963 RMK A01 T01981006  RH  025%=      5-min Rain = 0
KAM3 172224Z 15008KT 20/M01 A2963 RMK A01 T01981006  RH  025%=      5-min Rain = 0
KAM3 172225Z 17008KT 20/M00 A2963 RMK A01 T01981004  RH  026%=      5-min Rain = 0
KAM3 172226Z 18008KT 20/M01 A2963 RMK A01 T01991005  RH  025%=      5-min Rain = 0
KAM3 172227Z 18006KT 20/M00 A2963 RMK A01 T02001004  RH  025%=      5-min Rain = 0
KAM3 172228Z 19006KT 20/M00 A2963 RMK A01 T02001004  RH  025%=      5-min Rain = 0
KAM3 172229Z 20003KT 20/M01 A2963 RMK A01 T02001005  RH  025%=      5-min Rain = 0
KAM3 172230Z 20002KT 20/M01 A2963 RMK A01 T02001006  RH  025%=      5-min Rain = 0
KAM3 172231Z 16003KT 20/M00 A2963 RMK A01 T02001004  RH  025%=      5-min Rain = 0
KAM3 172232Z 14002KT 20/M01 A2963 RMK A01 T02001006  RH  025%=      5-min Rain = 0
KAM3 172233Z 14002KT 20/M01 A2963 RMK A01 T02001006  RH  025%=      5-min Rain = 0
KAM3 172234Z 16003KT 20/M01 A2963 RMK A01 T02001006  RH  025%=      5-min Rain = 0
KAM3 172235Z 12003KT 20/M01 A2963 RMK A01 T02001005  RH  025%=      5-min Rain = 0
KAM3 172236Z 15004KT 20/M01 A2963 RMK A01 T01991008  RH  025%=      5-min Rain = 0
KAM3 172237Z 15008KT 20/M01 A2963 RMK A01 T01991006  RH  025%=      5-min Rain = 0
KAM3 172238Z 16007KT 20/M00 A2963 RMK A01 T01991004  RH  025%=      5-min Rain = 0
KAM3 172239Z 17004KT 20/M01 A2963 RMK A01 T01991005  RH  025%=      5-min Rain = 0
KAM3 172240Z 14004KT 20/M01 A2963 RMK A01 T01991005  RH  025%=      5-min Rain = 0
KAM3 172241Z 14001KT 20/M01 A2963 RMK A01 T02001006  RH  025%=      5-min Rain = 0
KAM3 172242Z 15005KT 20/M01 A2963 RMK A01 T02001007  RH  025%=      5-min Rain = 0
KAM3 172243Z 16005KT 20/M01 A2963 RMK A01 T02001007  RH  025%=      5-min Rain = 0
KAM3 172244Z 14003KT 20/M01 A2963 RMK A01 T01991009  RH  025%=      5-min Rain = 0
KAM3 172245Z 12003KT 20/M01 A2963 RMK A01 T01981008  RH  025%=      5-min Rain = 0
KAM3 172246Z 12004KT 20/M01 A2963 RMK A01 T01971009  RH  025%=      5-min Rain = 0
KAM3 172247Z 14003KT 20/M01 A2963 RMK A01 T01961008  RH  025%=      5-min Rain = 0
KAM3 172248Z 13003KT 20/M01 A2963 RMK A01 T01971008  RH  025%=      5-min Rain = 0
KAM3 172249Z 09003KT 20/M01 A2963 RMK A01 T01971008  RH  025%=      5-min Rain = 0
KAM3 172250Z 07003KT 20/M01 A2963 RMK A01 T01981008  RH  025%=      5-min Rain = 0
KAM3 172251Z 09004KT 20/M01 A2963 RMK A01 T01971007  RH  025%=      5-min Rain = 0
KAM3 172252Z 11005KT 20/M01 A2963 RMK A01 T01971006  RH  025%=      5-min Rain = 0
KAM3 172253Z 10003KT 20/M01 A2963 RMK A01 T01971005  RH  026%=      5-min Rain = 0
KAM3 172254Z 09003KT 20/M01 A2963 RMK A01 T01971006  RH  025%=      5-min Rain = 0
KAM3 172255Z 08003KT 20/M01 A2963 RMK A01 T01981006  RH  025%=      5-min Rain = 0
KAM3 172256Z 10002KT 20/M01 A2963 RMK A01 T01981005  RH  026%=      5-min Rain = 0
KAM3 172257Z 14001KT 20/M01 A2963 RMK A01 T01981006  RH  025%=      5-min Rain = 0
KAM3 172258Z 10001KT 20/M01 A2963 RMK A01 T02001007  RH  025%=      5-min Rain = 0
KAM3 172259Z 14003KT 20/M01 A2963 RMK A01 T02011005  RH  025%=      5-min Rain = 0
KAM3 172300Z 14003KT 20/M01 A2963 RMK A01 T02011005  RH  025%=      5-min Rain = 0
KAM3 172301Z 14005KT 20/M00 A2963 RMK A01 T02021004  RH  025%=      5-min Rain = 0
KAM3 172302Z 14004KT 20/M01 A2963 RMK A01 T02001005  RH  025%=      5-min Rain = 0
KAM3 172303Z 16004KT 20/M01 A2963 RMK A01 T01981005  RH  026%=      5-min Rain = 0
KAM3 172304Z 15003KT 20/M00 A2963 RMK A01 T01981003  RH  026%=      5-min Rain = 0
KAM3 172305Z 10004KT 20/M00 A2963 RMK A01 T01981003  RH  026%=      5-min Rain = 0
KAM3 172306Z 09002KT 20/M00 A2963 RMK A01 T01981004  RH  026%=      5-min Rain = 0
KAM3 172307Z 12003KT 20/M00 A2963 RMK A01 T01981003  RH  026%=      5-min Rain = 0
KAM3 172308Z 12002KT 20/M00 A2963 RMK A01 T01991003  RH  026%=      5-min Rain = 0
KAM3 172309Z 13003KT 20/M00 A2963 RMK A01 T01981004  RH  026%=      5-min Rain = 0
KAM3 172310Z 12004KT 20/M00 A2963 RMK A01 T01981003  RH  026%=      5-min Rain = 0
KAM3 172311Z 13003KT 20/M00 A2963 RMK A01 T01981004  RH  026%=      5-min Rain = 0
KAM3 172312Z 13003KT 20/M01 A2963 RMK A01 T01971005  RH  026%=      5-min Rain = 0
KAM3 172313Z 11002KT 20/M00 A2963 RMK A01 T01971004  RH  026%=      5-min Rain = 0
KAM3 172314Z 09003KT 20/M00 A2963 RMK A01 T01971004  RH  026%=      5-min Rain = 0
KAM3 172315Z 08004KT 20/M01 A2963 RMK A01 T01971005  RH  026%=      5-min Rain = 0
KAM3 172316Z 08003KT 20/M00 A2963 RMK A01 T01971004  RH  026%=      5-min Rain = 0
KAM3 172317Z 08001KT 20/M01 A2963 RMK A01 T01971006  RH  026%=      5-min Rain = 0
KAM3 172318Z 08000KT 20/M01 A2963 RMK A01 T01961006  RH  026%=      5-min Rain = 0
KAM3 172319Z 21003KT 20/M00 A2963 RMK A01 T01971004  RH  026%=      5-min Rain = 0
KAM3 172320Z 18004KT 20/M00 A2963 RMK A01 T01991003  RH  026%=      5-min Rain = 0
KAM3 172321Z 17004KT 20/M01 A2963 RMK A01 T02001006  RH  025%=      5-min Rain = 0
KAM3 172322Z 17005KT 20/M01 A2963 RMK A01 T01991006  RH  025%=      5-min Rain = 0
KAM3 172323Z 16004KT 20/M01 A2963 RMK A01 T01991007  RH  025%=      5-min Rain = 0
KAM3 172324Z 15004KT 20/M01 A2963 RMK A01 T01981006  RH  025%=      5-min Rain = 0
KAM3 172325Z 14006KT 20/M01 A2963 RMK A01 T01981007  RH  025%=      5-min Rain = 0
KAM3 172326Z 14005KT 20/M01 A2963 RMK A01 T01971007  RH  025%=      5-min Rain = 0
KAM3 172327Z 13005KT 20/M01 A2963 RMK A01 T01971006  RH  025%=      5-min Rain = 0
KAM3 172328Z 13004KT 20/M01 A2963 RMK A01 T01961009  RH  025%=      5-min Rain = 0
KAM3 172329Z 12004KT 20/M01 A2963 RMK A01 T01961007  RH  026%=      5-min Rain = 0
KAM3 172330Z 12006KT 20/M01 A2963 RMK A01 T01961006  RH  026%=      5-min Rain = 0
KAM3 172331Z 12006KT 20/M01 A2963 RMK A01 T01951006  RH  026%=      5-min Rain = 0
KAM3 172332Z 13005KT 19/M01 A2963 RMK A01 T01941006  RH  026%=      5-min Rain = 0
KAM3 172333Z 12005KT 19/M00 A2963 RMK A01 T01941004  RH  026%=      5-min Rain = 0
KAM3 172334Z 12005KT 19/M01 A2963 RMK A01 T01931005  RH  026%=      5-min Rain = 0
KAM3 172335Z 12004KT 19/M01 A2963 RMK A01 T01931005  RH  026%=      5-min Rain = 0
KAM3 172336Z 12005KT 19/M01 A2963 RMK A01 T01921006  RH  026%=      5-min Rain = 0
KAM3 172337Z 12003KT 19/M01 A2963 RMK A01 T01901006  RH  026%=      5-min Rain = 0
KAM3 172338Z 11003KT 19/M01 A2963 RMK A01 T01891006  RH  027%=      5-min Rain = 0
KAM3 172339Z 12002KT 19/M01 A2963 RMK A01 T01881005  RH  027%=      5-min Rain = 0
KAM3 172340Z 13003KT 19/M01 A2963 RMK A01 T01871006  RH  027%=      5-min Rain = 0
KAM3 172341Z 14002KT 19/M01 A2963 RMK A01 T01871007  RH  027%=      5-min Rain = 0
KAM3 172342Z 12003KT 19/M01 A2963 RMK A01 T01861008  RH  027%=      5-min Rain = 0
KAM3 172343Z 10004KT 19/M01 A2963 RMK A01 T01861008  RH  027%=      5-min Rain = 0
KAM3 172344Z 11005KT 18/M01 A2963 RMK A01 T01841008  RH  027%=      5-min Rain = 0
KAM3 172345Z 12005KT 18/M01 A2963 RMK A01 T01831007  RH  028%=      5-min Rain = 0
KAM3 172346Z 12005KT 18/M01 A2963 RMK A01 T01801006  RH  028%=      5-min Rain = 0
KAM3 172347Z 12005KT 18/M01 A2963 RMK A01 T01781007  RH  029%=      5-min Rain = 0
KAM3 172348Z 12004KT 18/M01 A2963 RMK A01 T01771007  RH  029%=      5-min Rain = 0
KAM3 172349Z 12004KT 18/M01 A2963 RMK A01 T01761007  RH  029%=      5-min Rain = 0
KAM3 172350Z 12004KT 18/M01 A2963 RMK A01 T01751007  RH  029%=      5-min Rain = 0
KAM3 172351Z 12004KT 18/M01 A2963 RMK A01 T01751007  RH  029%=      5-min Rain = 0
KAM3 172352Z 12003KT 18/M01 A2963 RMK A01 T01751008  RH  029%=      5-min Rain = 0
KAM3 172353Z 12004KT 18/M01 A2963 RMK A01 T01751008  RH  029%=      5-min Rain = 0
KAM3 172354Z 11004KT 18/M01 A2963 RMK A01 T01751008  RH  029%=      5-min Rain = 0
KAM3 172355Z 11003KT 18/M01 A2963 RMK A01 T01751008  RH  029%=      5-min Rain = 0
KAM3 172356Z 12003KT 18/M01 A2963 RMK A01 T01751008  RH  029%=      5-min Rain = 0
KAM3 172357Z 12003KT 18/M01 A2963 RMK A01 T01751008  RH  029%=      5-min Rain = 0
KAM3 172358Z 11003KT 18/M01 A2963 RMK A01 T01751009  RH  029%=      5-min Rain = 0
KAM3 172359Z 11003KT 18/M01 A2963 RMK A01 T01751008  RH  029%=      5-min Rain = 0
KAM3 180000Z 11003KT 17/M01 A2963 RMK A01 T01741008  RH  029%=      5-min Rain = 0
KAM3 180001Z 11003KT 17/M01 A2963 RMK A01 T01741009  RH  029%=      5-min Rain = 0
KAM3 180002Z 11003KT 17/M01 A2963 RMK A01 T01741008  RH  029%=      5-min Rain = 0
KAM3 180003Z 11003KT 17/M01 A2963 RMK A01 T01741009  RH  029%=      5-min Rain = 0
KAM3 180004Z 11003KT 18/M01 A2963 RMK A01 T01751008  RH  029%=      5-min Rain = 0
KAM3 180005Z 12003KT 18/M01 A2964 RMK A01 T01751009  RH  029%=      5-min Rain = 0
KAM3 180006Z 12002KT 18/M01 A2964 RMK A01 T01751008  RH  029%=      5-min Rain = 0
KAM3 180007Z 12002KT 18/M01 A2964 RMK A01 T01761008  RH  029%=      5-min Rain = 0
KAM3 180008Z 12002KT 18/M01 A2964 RMK A01 T01761009  RH  029%=      5-min Rain = 0
KAM3 180009Z 13002KT 18/M01 A2964 RMK A01 T01761009  RH  028%=      5-min Rain = 0
KAM3 180010Z 14002KT 18/M01 A2964 RMK A01 T01771009  RH  028%=      5-min Rain = 0
KAM3 180011Z 14002KT 18/M01 A2964 RMK A01 T01781008  RH  028%=      5-min Rain = 0
KAM3 180012Z 13002KT 18/M01 A2964 RMK A01 T01781009  RH  028%=      5-min Rain = 0
KAM3 180013Z 12002KT 18/M01 A2964 RMK A01 T01791008  RH  028%=      5-min Rain = 0
KAM3 180014Z 12002KT 18/M01 A2964 RMK A01 T01781008  RH  028%=      5-min Rain = 0
KAM3 180015Z 12002KT 18/M01 A2964 RMK A01 T01781009  RH  028%=      5-min Rain = 0
KAM3 180016Z 11002KT 18/M01 A2964 RMK A01 T01771009  RH  028%=      5-min Rain = 0
KAM3 180017Z 10002KT 18/M01 A2964 RMK A01 T01761009  RH  029%=      5-min Rain = 0
KAM3 180018Z 09002KT 17/M01 A2964 RMK A01 T01741009  RH  029%=      5-min Rain = 0
KAM3 180019Z 09002KT 17/M01 A2964 RMK A01 T01731009  RH  029%=      5-min Rain = 0
KAM3 180020Z 09002KT 17/M01 A2964 RMK A01 T01721009  RH  029%=      5-min Rain = 0
KAM3 180021Z 09002KT 17/M01 A2964 RMK A01 T01721009  RH  029%=      5-min Rain = 0
KAM3 180022Z 09002KT 17/M01 A2964 RMK A01 T01711009  RH  029%=      5-min Rain = 0
KAM3 180023Z 10002KT 17/M01 A2964 RMK A01 T01711010  RH  029%=      5-min Rain = 0
KAM3 180024Z 10002KT 17/M01 A2964 RMK A01 T01711010  RH  029%=      5-min Rain = 0
KAM3 180025Z 10002KT 17/M01 A2964 RMK A01 T01701010  RH  029%=      5-min Rain = 0
KAM3 180026Z 10002KT 17/M01 A2964 RMK A01 T01691010  RH  030%=      5-min Rain = 0
KAM3 180027Z 10002KT 17/M01 A2964 RMK A01 T01691010  RH  030%=      5-min Rain = 0
KAM3 180028Z 10002KT 17/M01 A2964 RMK A01 T01681010  RH  030%=      5-min Rain = 0
KAM3 180029Z 09003KT 17/M01 A2964 RMK A01 T01661010  RH  030%=      5-min Rain = 0
KAM3 180030Z 09003KT 17/M01 A2964 RMK A01 T01651010  RH  030%=      5-min Rain = 0
KAM3 180031Z 09003KT 17/M01 A2965 RMK A01 T01651010  RH  030%=      5-min Rain = 0
KAM3 180032Z 09003KT 17/M01 A2965 RMK A01 T01661010  RH  030%=      5-min Rain = 0
KAM3 180033Z 10003KT 16/M01 A2965 RMK A01 T01641010  RH  030%=      5-min Rain = 0
KAM3 180034Z 12002KT 16/M01 A2965 RMK A01 T01611011  RH  031%=      5-min Rain = 0
KAM3 180035Z 12002KT 16/M01 A2965 RMK A01 T01601010  RH  031%=      5-min Rain = 0
KAM3 180036Z 10002KT 16/M01 A2965 RMK A01 T01601010  RH  031%=      5-min Rain = 0
KAM3 180037Z 08002KT 16/M01 A2965 RMK A01 T01601010  RH  031%=      5-min Rain = 0
KAM3 180038Z 08003KT 16/M01 A2965 RMK A01 T01601010  RH  031%=      5-min Rain = 0
KAM3 180039Z 08003KT 16/M01 A2965 RMK A01 T01611009  RH  031%=      5-min Rain = 0
KAM3 180040Z 07004KT 16/M01 A2965 RMK A01 T01601009  RH  031%=      5-min Rain = 0
KAM3 180041Z 06004KT 16/M01 A2965 RMK A01 T01601009  RH  031%=      5-min Rain = 0
KAM3 180042Z 06004KT 16/M01 A2965 RMK A01 T01591009  RH  032%=      5-min Rain = 0
KAM3 180043Z 07004KT 16/M01 A2965 RMK A01 T01591009  RH  032%=      5-min Rain = 0
KAM3 180044Z 07003KT 16/M01 A2965 RMK A01 T01571009  RH  032%=      5-min Rain = 0
KAM3 180045Z 07003KT 16/M01 A2965 RMK A01 T01551008  RH  033%=      5-min Rain = 0
KAM3 180046Z 07003KT 16/M01 A2965 RMK A01 T01571007  RH  033%=      5-min Rain = 0
KAM3 180047Z 08003KT 16/M01 A2965 RMK A01 T01591007  RH  032%=      5-min Rain = 0
KAM3 180048Z 08004KT 16/M01 A2965 RMK A01 T01601007  RH  032%=      5-min Rain = 0
KAM3 180049Z 08004KT 16/M01 A2966 RMK A01 T01611006  RH  032%=      5-min Rain = 0
KAM3 180050Z 08003KT 16/M01 A2966 RMK A01 T01611007  RH  032%=      5-min Rain = 0
KAM3 180051Z 08003KT 16/M01 A2966 RMK A01 T01611006  RH  032%=      5-min Rain = 0
KAM3 180052Z 08003KT 16/M01 A2966 RMK A01 T01611006  RH  032%=      5-min Rain = 0
KAM3 180053Z 08003KT 16/M01 A2966 RMK A01 T01611006  RH  032%=      5-min Rain = 0
KAM3 180054Z 08003KT 16/M01 A2966 RMK A01 T01611006  RH  032%=      5-min Rain = 0
KAM3 180055Z 08003KT 16/M01 A2966 RMK A01 T01601006  RH  032%=      5-min Rain = 0
KAM3 180056Z 08004KT 16/M01 A2966 RMK A01 T01601006  RH  032%=      5-min Rain = 0
KAM3 180057Z 08004KT 16/M01 A2966 RMK A01 T01591006  RH  032%=      5-min Rain = 0
KAM3 180058Z 08004KT 16/M01 A2966 RMK A01 T01581007  RH  032%=      5-min Rain = 0
KAM3 180059Z 08004KT 16/M01 A2966 RMK A01 T01561006  RH  033%=      5-min Rain = 0
KAM3 180100Z 08005KT 16/M01 A2966 RMK A01 T01551006  RH  033%=      5-min Rain = 0
KAM3 180101Z 09005KT 15/M01 A2966 RMK A01 T01541006  RH  033%=      5-min Rain = 0
KAM3 180102Z 08006KT 15/M01 A2966 RMK A01 T01531006  RH  034%=      5-min Rain = 0
KAM3 180103Z 08006KT 15/M01 A2966 RMK A01 T01521006  RH  034%=      5-min Rain = 0
KAM3 180104Z 08007KT 15/M01 A2966 RMK A01 T01501007  RH  034%=      5-min Rain = 0
KAM3 180105Z 08006KT 15/M01 A2966 RMK A01 T01461007  RH  035%=      5-min Rain = 0
KAM3 180106Z 08006KT 14/M01 A2966 RMK A01 T01401006  RH  037%=      5-min Rain = 0
KAM3 180107Z 08006KT 14/M01 A2966 RMK A01 T01371006  RH  037%=      5-min Rain = 0
KAM3 180108Z 08006KT 14/M01 A2966 RMK A01 T01361005  RH  038%=      5-min Rain = 0
KAM3 180109Z 08006KT 14/M01 A2966 RMK A01 T01351005  RH  038%=      5-min Rain = 0
KAM3 180110Z 08006KT 14/M01 A2966 RMK A01 T01361005  RH  038%=      5-min Rain = 0
KAM3 180111Z 08006KT 14/M01 A2966 RMK A01 T01381005  RH  037%=      5-min Rain = 0
KAM3 180112Z 08006KT 14/M01 A2966 RMK A01 T01391006  RH  037%=      5-min Rain = 0
KAM3 180113Z 08006KT 14/M01 A2967 RMK A01 T01391006  RH  037%=      5-min Rain = 0
KAM3 180114Z 08005KT 14/M01 A2967 RMK A01 T01411006  RH  036%=      5-min Rain = 0
KAM3 180115Z 08005KT 14/M01 A2967 RMK A01 T01441006  RH  036%=      5-min Rain = 0
KAM3 180116Z 08005KT 15/M01 A2967 RMK A01 T01451006  RH  036%=      5-min Rain = 0
KAM3 180117Z 08005KT 15/M01 A2967 RMK A01 T01451006  RH  035%=      5-min Rain = 0
KAM3 180118Z 08005KT 14/M01 A2967 RMK A01 T01441006  RH  036%=      5-min Rain = 0
KAM3 180119Z 08005KT 14/M01 A2967 RMK A01 T01441006  RH  036%=      5-min Rain = 0
KAM3 180120Z 08005KT 14/M01 A2967 RMK A01 T01441006  RH  036%=      5-min Rain = 0
KAM3 180121Z 08005KT 14/M01 A2967 RMK A01 T01441006  RH  036%=      5-min Rain = 0
KAM3 180122Z 08004KT 14/M01 A2967 RMK A01 T01441007  RH  036%=      5-min Rain = 0
KAM3 180123Z 08004KT 14/M01 A2967 RMK A01 T01421007  RH  036%=      5-min Rain = 0
KAM3 180124Z 08004KT 14/M01 A2967 RMK A01 T01411007  RH  036%=      5-min Rain = 0
KAM3 180125Z 08004KT 14/M01 A2967 RMK A01 T01411007  RH  036%=      5-min Rain = 0
KAM3 180126Z 08004KT 14/M01 A2967 RMK A01 T01421007  RH  036%=      5-min Rain = 0
KAM3 180127Z 08004KT 14/M01 A2967 RMK A01 T01441007  RH  036%=      5-min Rain = 0
KAM3 180128Z 08004KT 15/M01 A2967 RMK A01 T01451007  RH  035%=      5-min Rain = 0
KAM3 180129Z 08005KT 15/M01 A2967 RMK A01 T01461007  RH  035%=      5-min Rain = 0
KAM3 180130Z 08004KT 15/M01 A2967 RMK A01 T01461007  RH  035%=      5-min Rain = 0
KAM3 180131Z 08004KT 15/M01 A2967 RMK A01 T01451007  RH  035%=      5-min Rain = 0
KAM3 180132Z 05005KT 14/M01 A2967 RMK A01 T01421009  RH  036%=      5-min Rain = 0
KAM3 180133Z 05006KT 14/M01 A2967 RMK A01 T01361009  RH  037%=      5-min Rain = 0
KAM3 180134Z 05006KT 13/M01 A2967 RMK A01 T01331008  RH  038%=      5-min Rain = 0
KAM3 180135Z 05006KT 13/M01 A2967 RMK A01 T01301008  RH  038%=      5-min Rain = 0
KAM3 180136Z 05006KT 13/M01 A2967 RMK A01 T01271008  RH  039%=      5-min Rain = 0
KAM3 180137Z 06006KT 13/M01 A2967 RMK A01 T01261007  RH  040%=      5-min Rain = 0
KAM3 180138Z 06005KT 13/M01 A2967 RMK A01 T01261007  RH  040%=      5-min Rain = 0
KAM3 180139Z 06005KT 13/M01 A2967 RMK A01 T01251007  RH  040%=      5-min Rain = 0
KAM3 180140Z 06005KT 13/M01 A2967 RMK A01 T01261007  RH  040%=      5-min Rain = 0
KAM3 180141Z 06006KT 13/M01 A2967 RMK A01 T01271007  RH  039%=      5-min Rain = 0
KAM3 180142Z 06005KT 13/M01 A2967 RMK A01 T01271007  RH  039%=      5-min Rain = 0
KAM3 180143Z 06005KT 13/M01 A2967 RMK A01 T01271007  RH  040%=      5-min Rain = 0
KAM3 180144Z 06005KT 13/M01 A2967 RMK A01 T01271007  RH  039%=      5-min Rain = 0
KAM3 180145Z 06005KT 13/M01 A2967 RMK A01 T01271007  RH  040%=      5-min Rain = 0
KAM3 180146Z 06005KT 13/M01 A2967 RMK A01 T01271007  RH  039%=      5-min Rain = 0
KAM3 180147Z 06006KT 13/M01 A2968 RMK A01 T01281008  RH  039%=      5-min Rain = 0
KAM3 180148Z 06006KT 13/M01 A2968 RMK A01 T01271008  RH  039%=      5-min Rain = 0
KAM3 180149Z 06006KT 13/M01 A2968 RMK A01 T01251008  RH  040%=      5-min Rain = 0
KAM3 180150Z 06006KT 12/M01 A2968 RMK A01 T01241008  RH  040%=      5-min Rain = 0
KAM3 180151Z 06005KT 12/M01 A2968 RMK A01 T01241008  RH  040%=      5-min Rain = 0
KAM3 180152Z 07005KT 12/M01 A2968 RMK A01 T01241008  RH  040%=      5-min Rain = 0
KAM3 180153Z 07005KT 13/M01 A2968 RMK A01 T01251008  RH  040%=      5-min Rain = 0
KAM3 180154Z 07005KT 13/M01 A2968 RMK A01 T01261008  RH  040%=      5-min Rain = 0
KAM3 180155Z 08006KT 13/M01 A2968 RMK A01 T01261008  RH  039%=      5-min Rain = 0
KAM3 180156Z 08006KT 13/M01 A2968 RMK A01 T01261008  RH  039%=      5-min Rain = 0
KAM3 180157Z 08006KT 13/M01 A2968 RMK A01 T01271008  RH  039%=      5-min Rain = 0
KAM3 180158Z 09005KT 13/M01 A2968 RMK A01 T01271009  RH  039%=      5-min Rain = 0
KAM3 180159Z 09005KT 13/M01 A2968 RMK A01 T01271009  RH  039%=      5-min Rain = 0
KAM3 180200Z 08005KT 12/M01 A2968 RMK A01 T01241009  RH  040%=      5-min Rain = 0
KAM3 180201Z 08005KT 12/M01 A2968 RMK A01 T01231009  RH  040%=      5-min Rain = 0
KAM3 180202Z 08005KT 12/M01 A2968 RMK A01 T01231009  RH  040%=      5-min Rain = 0
KAM3 180203Z 08005KT 12/M01 A2968 RMK A01 T01231009  RH  040%=      5-min Rain = 0
KAM3 180204Z 08005KT 12/M01 A2968 RMK A01 T01231009  RH  040%=      5-min Rain = 0
KAM3 180205Z 08005KT 12/M01 A2968 RMK A01 T01241010  RH  040%=      5-min Rain = 0
KAM3 180206Z 08005KT 13/M01 A2968 RMK A01 T01261010  RH  039%=      5-min Rain = 0
KAM3 180207Z 08005KT 13/M01 A2968 RMK A01 T01281009  RH  039%=      5-min Rain = 0
KAM3 180208Z 08006KT 13/M01 A2968 RMK A01 T01311008  RH  038%=      5-min Rain = 0
KAM3 180209Z 08006KT 13/M01 A2968 RMK A01 T01331009  RH  038%=      5-min Rain = 0
KAM3 180210Z 08006KT 13/M01 A2968 RMK A01 T01331009  RH  038%=      5-min Rain = 0
KAM3 180211Z 08005KT 13/M01 A2968 RMK A01 T01311010  RH  038%=      5-min Rain = 0
KAM3 180212Z 08006KT 13/M01 A2968 RMK A01 T01301009  RH  038%=      5-min Rain = 0
KAM3 180213Z 08006KT 13/M01 A2968 RMK A01 T01291009  RH  038%=      5-min Rain = 0
KAM3 180214Z 08006KT 13/M01 A2968 RMK A01 T01271008  RH  039%=      5-min Rain = 0
KAM3 180215Z 08005KT 12/M01 A2968 RMK A01 T01241009  RH  040%=      5-min Rain = 0
KAM3 180216Z 08006KT 12/M01 A2968 RMK A01 T01231008  RH  040%=      5-min Rain = 0
KAM3 180217Z 08006KT 12/M01 A2968 RMK A01 T01241008  RH  040%=      5-min Rain = 0
KAM3 180218Z 08005KT 13/M01 A2968 RMK A01 T01251008  RH  040%=      5-min Rain = 0
KAM3 180219Z 08005KT 12/M01 A2968 RMK A01 T01241008  RH  040%=      5-min Rain = 0
KAM3 180220Z 08006KT 12/M01 A2968 RMK A01 T01211008  RH  041%=      5-min Rain = 0
KAM3 180221Z 08006KT 12/M01 A2968 RMK A01 T01191008  RH  041%=      5-min Rain = 0
KAM3 180222Z 08006KT 12/M01 A2968 RMK A01 T01161008  RH  042%=      5-min Rain = 0
KAM3 180223Z 08006KT 12/M01 A2968 RMK A01 T01151009  RH  042%=      5-min Rain = 0
KAM3 180224Z 08006KT 11/M01 A2968 RMK A01 T01141008  RH  043%=      5-min Rain = 0
KAM3 180225Z 08006KT 11/M01 A2968 RMK A01 T01131008  RH  043%=      5-min Rain = 0
KAM3 180226Z 08006KT 11/M01 A2968 RMK A01 T01131007  RH  043%=      5-min Rain = 0
KAM3 180227Z 08006KT 11/M01 A2968 RMK A01 T01111008  RH  044%=      5-min Rain = 0
KAM3 180228Z 08006KT 11/M01 A2968 RMK A01 T01111008  RH  044%=      5-min Rain = 0
KAM3 180229Z 08006KT 11/M01 A2968 RMK A01 T01111007  RH  044%=      5-min Rain = 0
KAM3 180230Z 09007KT 11/M01 A2968 RMK A01 T01101007  RH  044%=      5-min Rain = 0
KAM3 180231Z 09006KT 11/M01 A2968 RMK A01 T01081008  RH  045%=      5-min Rain = 0
KAM3 180232Z 09006KT 11/M01 A2968 RMK A01 T01081008  RH  045%=      5-min Rain = 0
KAM3 180233Z 09006KT 11/M01 A2968 RMK A01 T01091008  RH  044%=      5-min Rain = 0
KAM3 180234Z 09006KT 11/M01 A2968 RMK A01 T01091008  RH  044%=      5-min Rain = 0
KAM3 180235Z 09007KT 11/M01 A2968 RMK A01 T01081008  RH  045%=      5-min Rain = 0
KAM3 180236Z 09006KT 11/M01 A2969 RMK A01 T01071008  RH  045%=      5-min Rain = 0
KAM3 180237Z 10007KT 11/M01 A2969 RMK A01 T01071008  RH  045%=      5-min Rain = 0
KAM3 180238Z 10008KT 11/M01 A2969 RMK A01 T01071008  RH  045%=      5-min Rain = 0
KAM3 180239Z 10007KT 11/M01 A2969 RMK A01 T01081008  RH  044%=      5-min Rain = 0
KAM3 180240Z 10007KT 11/M01 A2969 RMK A01 T01091007  RH  045%=      5-min Rain = 0
KAM3 180241Z 10007KT 11/M01 A2969 RMK A01 T01091006  RH  045%=      5-min Rain = 0
KAM3 180242Z 10006KT 11/M01 A2969 RMK A01 T01111005  RH  044%=      5-min Rain = 0
KAM3 180243Z 11005KT 11/M00 A2969 RMK A01 T01131004  RH  044%=      5-min Rain = 0
KAM3 180244Z 11005KT 11/M00 A2969 RMK A01 T01121004  RH  045%=      5-min Rain = 0
KAM3 180245Z 11005KT 11/M01 A2969 RMK A01 T01111006  RH  044%=      5-min Rain = 0
KAM3 180246Z 12005KT 11/M01 A2969 RMK A01 T01101007  RH  044%=      5-min Rain = 0
KAM3 180247Z 12005KT 11/M01 A2969 RMK A01 T01091007  RH  044%=      5-min Rain = 0
KAM3 180248Z 13005KT 11/M01 A2969 RMK A01 T01091008  RH  045%=      5-min Rain = 0
KAM3 180249Z 13005KT 11/M01 A297 RMK A01 T01101007  RH  044%=      5-min Rain = 0
KAM3 180250Z 14005KT 11/M01 A297 RMK A01 T01131007  RH  043%=      5-min Rain = 0
KAM3 180251Z 15005KT 11/M01 A297 RMK A01 T01141008  RH  043%=      5-min Rain = 0
KAM3 180252Z 15005KT 11/M01 A297 RMK A01 T01141008  RH  043%=      5-min Rain = 0
KAM3 180253Z 16005KT 11/M01 A297 RMK A01 T01141009  RH  043%=      5-min Rain = 0
KAM3 180254Z 16005KT 11/M01 A297 RMK A01 T01131009  RH  043%=      5-min Rain = 0
KAM3 180255Z 15005KT 11/M01 A297 RMK A01 T01121009  RH  043%=      5-min Rain = 0
KAM3 180256Z 15005KT 11/M01 A297 RMK A01 T01121009  RH  043%=      5-min Rain = 0
KAM3 180257Z 15005KT 11/M01 A297 RMK A01 T01141008  RH  043%=      5-min Rain = 0
KAM3 180258Z 15004KT 12/M01 A297 RMK A01 T01161008  RH  042%=      5-min Rain = 0
KAM3 180259Z 15004KT 12/M01 A297 RMK A01 T01161009  RH  042%=      5-min Rain = 0
KAM3 180300Z 15004KT 12/M01 A297 RMK A01 T01171008  RH  042%=      5-min Rain = 0
KAM3 180301Z 16004KT 12/M01 A297 RMK A01 T01181009  RH  042%=      5-min Rain = 0
KAM3 180302Z 17004KT 12/M01 A297 RMK A01 T01181009  RH  041%=      5-min Rain = 0
KAM3 180303Z 17004KT 12/M01 A297 RMK A01 T01181009  RH  042%=      5-min Rain = 0
KAM3 180304Z 17004KT 12/M01 A297 RMK A01 T01171009  RH  042%=      5-min Rain = 0
KAM3 180305Z 17004KT 12/M01 A297 RMK A01 T01161008  RH  042%=      5-min Rain = 0
KAM3 180306Z 16004KT 12/M01 A297 RMK A01 T01151008  RH  042%=      5-min Rain = 0
KAM3 180307Z 15004KT 12/M01 A297 RMK A01 T01151008  RH  043%=      5-min Rain = 0
KAM3 180308Z 15004KT 11/M01 A297 RMK A01 T01141008  RH  043%=      5-min Rain = 0
KAM3 180309Z 14004KT 11/M01 A297 RMK A01 T01131008  RH  043%=      5-min Rain = 0
KAM3 180310Z 13004KT 11/M01 A297 RMK A01 T01121007  RH  043%=      5-min Rain = 0
KAM3 180311Z 14004KT 11/M01 A297 RMK A01 T01131007  RH  043%=      5-min Rain = 0
KAM3 180312Z 14005KT 11/M01 A297 RMK A01 T01131007  RH  043%=      5-min Rain = 0
KAM3 180313Z 14005KT 11/M01 A297 RMK A01 T01141007  RH  043%=      5-min Rain = 0
KAM3 180314Z 14005KT 11/M01 A297 RMK A01 T01141006  RH  043%=      5-min Rain = 0
KAM3 180315Z 14005KT 11/M01 A297 RMK A01 T01141006  RH  043%=      5-min Rain = 0
KAM3 180316Z 14005KT 11/M01 A297 RMK A01 T01141005  RH  044%=      5-min Rain = 0
KAM3 180317Z 14004KT 11/M01 A297 RMK A01 T01131006  RH  044%=      5-min Rain = 0
KAM3 180318Z 14004KT 11/M01 A297 RMK A01 T01131005  RH  044%=      5-min Rain = 0
KAM3 180319Z 14004KT 11/M01 A297 RMK A01 T01121006  RH  044%=      5-min Rain = 0
KAM3 180320Z 14004KT 11/M01 A297 RMK A01 T01121005  RH  044%=      5-min Rain = 0
KAM3 180321Z 14004KT 11/M01 A297 RMK A01 T01111005  RH  044%=      5-min Rain = 0
KAM3 180322Z 14004KT 11/M01 A297 RMK A01 T01101005  RH  045%=      5-min Rain = 0
KAM3 180323Z 13004KT 11/M00 A297 RMK A01 T01101004  RH  045%=      5-min Rain = 0
KAM3 180324Z 14004KT 11/M00 A297 RMK A01 T01091004  RH  046%=      5-min Rain = 0
KAM3 180325Z 14004KT 11/M00 A297 RMK A01 T01081004  RH  046%=      5-min Rain = 0
KAM3 180326Z 14003KT 11/M00 A297 RMK A01 T01081004  RH  046%=      5-min Rain = 0
KAM3 180327Z 14003KT 11/M00 A297 RMK A01 T01081004  RH  046%=      5-min Rain = 0
KAM3 180328Z 13003KT 11/M00 A2971 RMK A01 T01081004  RH  046%=      5-min Rain = 0
KAM3 180329Z 13003KT 11/M01 A2971 RMK A01 T01081005  RH  046%=      5-min Rain = 0
KAM3 180330Z 14003KT 11/M01 A2971 RMK A01 T01061006  RH  046%=      5-min Rain = 0
KAM3 180331Z 14003KT 10/M01 A2971 RMK A01 T01031006  RH  047%=      5-min Rain = 0
KAM3 180332Z 14003KT 10/M01 A2971 RMK A01 T01011006  RH  047%=      5-min Rain = 0
KAM3 180333Z 14003KT 10/M01 A2971 RMK A01 T01001006  RH  048%=      5-min Rain = 0
KAM3 180334Z 14003KT 10/M01 A2971 RMK A01 T01001006  RH  048%=      5-min Rain = 0
KAM3 180335Z 14003KT 10/M01 A2971 RMK A01 T01001005  RH  048%=      5-min Rain = 0
KAM3 180336Z 14004KT 10/M01 A2971 RMK A01 T00991006  RH  048%=      5-min Rain = 0
KAM3 180337Z 14003KT 10/M01 A2971 RMK A01 T00981006  RH  048%=      5-min Rain = 0
KAM3 180338Z 13004KT 10/M01 A2971 RMK A01 T00961007  RH  049%=      5-min Rain = 0
KAM3 180339Z 14004KT 10/M01 A2971 RMK A01 T00951006  RH  049%=      5-min Rain = 0
KAM3 180340Z 15004KT 10/M01 A2971 RMK A01 T00951005  RH  050%=      5-min Rain = 0
KAM3 180341Z 15005KT 10/M01 A2971 RMK A01 T00961005  RH  049%=      5-min Rain = 0
KAM3 180342Z 14004KT 10/M00 A2971 RMK A01 T00981003  RH  049%=      5-min Rain = 0
KAM3 180343Z 14005KT 10/M00 A2971 RMK A01 T00981004  RH  049%=      5-min Rain = 0
KAM3 180344Z 14005KT 10/M00 A2971 RMK A01 T00981003  RH  049%=      5-min Rain = 0
KAM3 180345Z 13005KT 10/M00 A2971 RMK A01 T00981003  RH  049%=      5-min Rain = 0
KAM3 180346Z 13005KT 10/M00 A2971 RMK A01 T00971003  RH  050%=      5-min Rain = 0
KAM3 180347Z 13005KT 10/M00 A2971 RMK A01 T00971003  RH  050%=      5-min Rain = 0
KAM3 180348Z 13005KT 10/M00 A2971 RMK A01 T00971004  RH  050%=      5-min Rain = 0
KAM3 180349Z 13005KT 10/M00 A2971 RMK A01 T00961004  RH  050%=      5-min Rain = 0
KAM3 180350Z 13005KT 10/M00 A2971 RMK A01 T00961003  RH  050%=      5-min Rain = 0
KAM3 180351Z 13005KT 10/M00 A2971 RMK A01 T00951004  RH  050%=      5-min Rain = 0
KAM3 180352Z 12005KT 09/M00 A2971 RMK A01 T00941004  RH  050%=      5-min Rain = 0
KAM3 180353Z 12005KT 09/M00 A2971 RMK A01 T00931004  RH  051%=      5-min Rain = 0
KAM3 180354Z 12005KT 09/M00 A2971 RMK A01 T00911004  RH  051%=      5-min Rain = 0
KAM3 180355Z 12005KT 09/M00 A2971 RMK A01 T00901003  RH  052%=      5-min Rain = 0
KAM3 180356Z 12004KT 09/M00 A2971 RMK A01 T00911003  RH  052%=      5-min Rain = 0
KAM3 180357Z 12004KT 09/M00 A2971 RMK A01 T00921003  RH  052%=      5-min Rain = 0
KAM3 180358Z 12004KT 09/M00 A2971 RMK A01 T00921002  RH  052%=      5-min Rain = 0
KAM3 180359Z 13004KT 09/M00 A2971 RMK A01 T00921003  RH  052%=      5-min Rain = 0
KAM3 180400Z 13004KT 09/M00 A2971 RMK A01 T00921002  RH  052%=      5-min Rain = 0
KAM3 180401Z 13005KT 09/M00 A2971 RMK A01 T00941001  RH  051%=      5-min Rain = 0
KAM3 180402Z 13005KT 10/M00 A2971 RMK A01 T00951002  RH  051%=      5-min Rain = 0
KAM3 180403Z 13005KT 10/M00 A2972 RMK A01 T00951001  RH  051%=      5-min Rain = 0
KAM3 180404Z 13005KT 10/M00 A2972 RMK A01 T00961001  RH  051%=      5-min Rain = 0
KAM3 180405Z 13005KT 10/M00 A2972 RMK A01 T00951001  RH  051%=      5-min Rain = 0
KAM3 180406Z 13005KT 09/M00 A2972 RMK A01 T00941001  RH  051%=      5-min Rain = 0
KAM3 180407Z 13005KT 09/M00 A2972 RMK A01 T00921002  RH  052%=      5-min Rain = 0
KAM3 180408Z 13005KT 09/M00 A2972 RMK A01 T00901002  RH  053%=      5-min Rain = 0
KAM3 180409Z 12005KT 09/M00 A2972 RMK A01 T00881003  RH  053%=      5-min Rain = 0
KAM3 180410Z 12005KT 09/M00 A2972 RMK A01 T00861002  RH  054%=      5-min Rain = 0
KAM3 180411Z 12006KT 09/M00 A2972 RMK A01 T00861001  RH  054%=      5-min Rain = 0
KAM3 180412Z 12006KT 09/M00 A2972 RMK A01 T00871001  RH  054%=      5-min Rain = 0
KAM3 180413Z 12006KT 09/00 A2972 RMK A01 T008800-0  RH  054%=      5-min Rain = 0
KAM3 180414Z 12006KT 09/00 A2972 RMK A01 T00880000  RH  054%=      5-min Rain = 0
KAM3 180415Z 12006KT 09/00 A2972 RMK A01 T00870000  RH  054%=      5-min Rain = 0
KAM3 180416Z 12006KT 09/00 A2972 RMK A01 T00880001  RH  054%=      5-min Rain = 0
KAM3 180417Z 13006KT 09/00 A2972 RMK A01 T00870001  RH  055%=      5-min Rain = 0
KAM3 180418Z 13006KT 09/00 A2972 RMK A01 T00860001  RH  055%=      5-min Rain = 0
KAM3 180419Z 13006KT 09/00 A2972 RMK A01 T00870001  RH  055%=      5-min Rain = 0
KAM3 180420Z 13006KT 09/00 A2972 RMK A01 T00870001  RH  055%=      5-min Rain = 0
KAM3 180421Z 13006KT 09/00 A2972 RMK A01 T00880001  RH  054%=      5-min Rain = 0
KAM3 180422Z 13006KT 09/00 A2972 RMK A01 T00890002  RH  054%=      5-min Rain = 0
KAM3 180423Z 13006KT 09/00 A2972 RMK A01 T00900002  RH  054%=      5-min Rain = 0
KAM3 180424Z 13006KT 09/00 A2972 RMK A01 T00900002  RH  054%=      5-min Rain = 0
KAM3 180425Z 13006KT 09/00 A2972 RMK A01 T00900002  RH  054%=      5-min Rain = 0
KAM3 180426Z 14006KT 09/00 A2972 RMK A01 T00920003  RH  054%=      5-min Rain = 0
KAM3 180427Z 14006KT 09/00 A2972 RMK A01 T00920003  RH  054%=      5-min Rain = 0
KAM3 180428Z 14006KT 09/00 A2972 RMK A01 T00920003  RH  054%=      5-min Rain = 0
KAM3 180429Z 15006KT 09/00 A2972 RMK A01 T00930003  RH  054%=      5-min Rain = 0
KAM3 180430Z 15006KT 09/00 A2972 RMK A01 T00910002  RH  054%=      5-min Rain = 0
KAM3 180431Z 15006KT 09/00 A2972 RMK A01 T00900002  RH  054%=      5-min Rain = 0
KAM3 180432Z 14006KT 09/00 A2972 RMK A01 T00890002  RH  054%=      5-min Rain = 0
KAM3 180433Z 14006KT 09/00 A2972 RMK A01 T00880001  RH  054%=      5-min Rain = 0
KAM3 180434Z 14007KT 09/00 A2972 RMK A01 T00870001  RH  055%=      5-min Rain = 0
KAM3 180435Z 13007KT 09/00 A2972 RMK A01 T00870002  RH  055%=      5-min Rain = 0
KAM3 180436Z 13007KT 09/00 A2972 RMK A01 T00860002  RH  055%=      5-min Rain = 0
KAM3 180437Z 13007KT 09/00 A2972 RMK A01 T00850002  RH  056%=      5-min Rain = 0
KAM3 180438Z 13007KT 09/00 A2972 RMK A01 T00850003  RH  056%=      5-min Rain = 0
KAM3 180439Z 13007KT 08/00 A2972 RMK A01 T00840004  RH  057%=      5-min Rain = 0
KAM3 180440Z 13007KT 08/00 A2972 RMK A01 T00830004  RH  057%=      5-min Rain = 0
KAM3 180441Z 13006KT 08/00 A2972 RMK A01 T00820003  RH  058%=      5-min Rain = 0
KAM3 180442Z 14007KT 08/00 A2972 RMK A01 T00800002  RH  058%=      5-min Rain = 0
KAM3 180443Z 13007KT 08/00 A2972 RMK A01 T00790002  RH  058%=      5-min Rain = 0
KAM3 180444Z 14007KT 08/00 A2972 RMK A01 T00770002  RH  059%=      5-min Rain = 0
KAM3 180445Z 14008KT 08/00 A2972 RMK A01 T00760002  RH  059%=      5-min Rain = 0
KAM3 180446Z 14008KT 08/00 A2972 RMK A01 T00760002  RH  060%=      5-min Rain = 0
KAM3 180447Z 14009KT 08/00 A2972 RMK A01 T00760003  RH  060%=      5-min Rain = 0
KAM3 180448Z 14008KT 08/00 A2972 RMK A01 T00760004  RH  060%=      5-min Rain = 0
KAM3 180449Z 14008KT 08/00 A2972 RMK A01 T00770004  RH  060%=      5-min Rain = 0
KAM3 180450Z 14007KT 08/01 A2972 RMK A01 T00770005  RH  060%=      5-min Rain = 0
KAM3 180451Z 14008KT 08/00 A2972 RMK A01 T00760004  RH  060%=      5-min Rain = 0
KAM3 180452Z 14008KT 08/00 A2972 RMK A01 T00750004  RH  061%=      5-min Rain = 0
KAM3 180453Z 14008KT 08/00 A2972 RMK A01 T00750004  RH  061%=      5-min Rain = 0
KAM3 180454Z 14008KT 08/00 A2972 RMK A01 T00750004  RH  061%=      5-min Rain = 0
KAM3 180455Z 14008KT 08/00 A2972 RMK A01 T00750004  RH  061%=      5-min Rain = 0
KAM3 180456Z 14008KT 08/00 A2972 RMK A01 T00750004  RH  061%=      5-min Rain = 0
KAM3 180457Z 14008KT 07/00 A2972 RMK A01 T00740004  RH  061%=      5-min Rain = 0
KAM3 180458Z 14008KT 07/01 A2972 RMK A01 T00740005  RH  061%=      5-min Rain = 0
KAM3 180459Z 14008KT 07/01 A2972 RMK A01 T00740005  RH  061%=      5-min Rain = 0
KAM3 180500Z 14008KT 07/01 A2972 RMK A01 T00740005  RH  061%=      5-min Rain = 0
KAM3 180501Z 14008KT 07/00 A2972 RMK A01 T00740004  RH  061%=      5-min Rain = 0
KAM3 180502Z 14008KT 07/00 A2972 RMK A01 T00740004  RH  061%=      5-min Rain = 0
KAM3 180503Z 14008KT 08/00 A2972 RMK A01 T00750004  RH  061%=      5-min Rain = 0
KAM3 180504Z 14007KT 07/00 A2972 RMK A01 T00740003  RH  061%=      5-min Rain = 0
KAM3 180505Z 14008KT 07/00 A2972 RMK A01 T00710002  RH  062%=      5-min Rain = 0
KAM3 180506Z 14008KT 07/00 A2972 RMK A01 T00690002  RH  062%=      5-min Rain = 0
KAM3 180507Z 14008KT 07/00 A2972 RMK A01 T00690002  RH  062%=      5-min Rain = 0
KAM3 180508Z 14008KT 07/00 A2972 RMK A01 T00690003  RH  062%=      5-min Rain = 0
KAM3 180509Z 14008KT 07/00 A2972 RMK A01 T00700003  RH  062%=      5-min Rain = 0
KAM3 180510Z 14008KT 07/00 A2972 RMK A01 T00700003  RH  062%=      5-min Rain = 0
KAM3 180511Z 14008KT 07/00 A2972 RMK A01 T00700003  RH  063%=      5-min Rain = 0
KAM3 180512Z 14008KT 07/00 A2972 RMK A01 T00700003  RH  062%=      5-min Rain = 0
KAM3 180513Z 15007KT 07/00 A2972 RMK A01 T00710004  RH  062%=      5-min Rain = 0
KAM3 180514Z 15007KT 07/00 A2972 RMK A01 T00720004  RH  062%=      5-min Rain = 0
KAM3 180515Z 15007KT 07/00 A2972 RMK A01 T00730004  RH  062%=      5-min Rain = 0
KAM3 180516Z 15006KT 07/00 A2973 RMK A01 T00730004  RH  061%=      5-min Rain = 0
KAM3 180517Z 15006KT 07/00 A2973 RMK A01 T00730003  RH  061%=      5-min Rain = 0
KAM3 180518Z 16006KT 07/00 A2973 RMK A01 T00730003  RH  061%=      5-min Rain = 0
KAM3 180519Z 16006KT 07/00 A2973 RMK A01 T00730004  RH  061%=      5-min Rain = 0
KAM3 180520Z 15007KT 07/00 A2973 RMK A01 T00720004  RH  062%=      5-min Rain = 0
KAM3 180521Z 15006KT 07/00 A2972 RMK A01 T00720004  RH  062%=      5-min Rain = 0
KAM3 180522Z 15006KT 07/00 A2972 RMK A01 T00730004  RH  062%=      5-min Rain = 0
KAM3 180523Z 15006KT 07/00 A2973 RMK A01 T00740004  RH  061%=      5-min Rain = 0
KAM3 180524Z 15006KT 07/00 A2973 RMK A01 T00740004  RH  061%=      5-min Rain = 0
KAM3 180525Z 15006KT 08/00 A2973 RMK A01 T00750004  RH  061%=      5-min Rain = 0
KAM3 180526Z 15006KT 08/01 A2973 RMK A01 T00750005  RH  061%=      5-min Rain = 0
KAM3 180527Z 15006KT 08/00 A2973 RMK A01 T00750004  RH  061%=      5-min Rain = 0
KAM3 180528Z 15006KT 08/00 A2973 RMK A01 T00750004  RH  061%=      5-min Rain = 0
KAM3 180529Z 15006KT 08/00 A2973 RMK A01 T00750004  RH  061%=      5-min Rain = 0
KAM3 180530Z 15005KT 07/00 A2973 RMK A01 T00740004  RH  061%=      5-min Rain = 0
KAM3 180531Z 14005KT 07/00 A2973 RMK A01 T00730004  RH  061%=      5-min Rain = 0
KAM3 180532Z 14005KT 07/00 A2973 RMK A01 T00730003  RH  061%=      5-min Rain = 0
KAM3 180533Z 14004KT 07/00 A2973 RMK A01 T00730004  RH  061%=      5-min Rain = 0
KAM3 180534Z 14004KT 07/00 A2973 RMK A01 T00720003  RH  061%=      5-min Rain = 0
KAM3 180535Z 15004KT 07/00 A2973 RMK A01 T00720003  RH  062%=      5-min Rain = 0
KAM3 180536Z 15004KT 07/00 A2973 RMK A01 T00720003  RH  062%=      5-min Rain = 0
KAM3 180537Z 15003KT 07/00 A2973 RMK A01 T00720004  RH  062%=      5-min Rain = 0
KAM3 180538Z 14003KT 07/00 A2973 RMK A01 T00720004  RH  062%=      5-min Rain = 0
KAM3 180539Z 15002KT 07/00 A2973 RMK A01 T00720003  RH  062%=      5-min Rain = 0
KAM3 180540Z 15002KT 07/00 A2973 RMK A01 T00700002  RH  062%=      5-min Rain = 0
KAM3 180541Z 15002KT 07/00 A2973 RMK A01 T00690002  RH  063%=      5-min Rain = 0
KAM3 180542Z 16002KT 07/00 A2973 RMK A01 T00680002  RH  063%=      5-min Rain = 0
KAM3 180543Z 17001KT 07/00 A2973 RMK A01 T00670003  RH  063%=      5-min Rain = 0
KAM3 180544Z 17002KT 07/00 A2973 RMK A01 T00670003  RH  063%=      5-min Rain = 0
KAM3 180545Z 18002KT 07/00 A2973 RMK A01 T00670003  RH  064%=      5-min Rain = 0
KAM3 180546Z 17002KT 07/00 A2973 RMK A01 T00670003  RH  064%=      5-min Rain = 0
KAM3 180547Z 18002KT 07/00 A2973 RMK A01 T00660003  RH  064%=      5-min Rain = 0
KAM3 180548Z 17002KT 07/00 A2973 RMK A01 T00670004  RH  064%=      5-min Rain = 0
KAM3 180549Z 16002KT 07/00 A2973 RMK A01 T00670004  RH  064%=      5-min Rain = 0
KAM3 180550Z 15002KT 07/01 A2973 RMK A01 T00670005  RH  064%=      5-min Rain = 0
KAM3 180551Z 18002KT 07/01 A2973 RMK A01 T00690005  RH  064%=      5-min Rain = 0
KAM3 180552Z 16002KT 07/01 A2973 RMK A01 T00690005  RH  064%=      5-min Rain = 0
KAM3 180553Z 16002KT 07/01 A2973 RMK A01 T00700005  RH  063%=      5-min Rain = 0
KAM3 180554Z 16002KT 07/00 A2973 RMK A01 T00700003  RH  062%=      5-min Rain = 0
KAM3 180555Z 15002KT 07/00 A2973 RMK A01 T00690003  RH  063%=      5-min Rain = 0
KAM3 180556Z 14003KT 07/00 A2973 RMK A01 T00680004  RH  064%=      5-min Rain = 0
KAM3 180557Z 15003KT 07/01 A2973 RMK A01 T00700005  RH  064%=      5-min Rain = 0
KAM3 180558Z 15003KT 07/01 A2973 RMK A01 T00720006  RH  063%=      5-min Rain = 0
KAM3 180559Z 15003KT 07/01 A2973 RMK A01 T00720005  RH  062%=      5-min Rain = 0
KAM3 180600Z 15003KT 07/01 A2973 RMK A01 T00730005  RH  062%=      5-min Rain = 0

Page generated in 0.1381 seconds.